Observation data for Estelline on 06/26/2019      Previous  Date  Next       Current Mesonet Observations  Soil Data  Daily Summary Page  Observations in Plain Language
KES1 260500Z 18012KT 25/13 A2998 RMK A01 T02500132  RH  048%=      5-min Rain = 0
KES1 260501Z 19010KT 25/13 A2998 RMK A01 T02520132  RH  047%=      5-min Rain = 0
KES1 260502Z 18009KT 25/13 A2999 RMK A01 T02520133  RH  048%=      5-min Rain = 0
KES1 260503Z 17009KT 25/14 A2999 RMK A01 T02510135  RH  048%=      5-min Rain = 0
KES1 260504Z 18010KT 25/14 A2999 RMK A01 T02500135  RH  049%=      5-min Rain = 0
KES1 260505Z 17010KT 25/13 A2999 RMK A01 T02490134  RH  049%=      5-min Rain = 0
KES1 260506Z 18010KT 25/14 A2999 RMK A01 T02480135  RH  049%=      5-min Rain = 0
KES1 260507Z 17010KT 25/13 A2999 RMK A01 T02470134  RH  049%=      5-min Rain = 0
KES1 260508Z 17009KT 25/14 A2999 RMK A01 T02470135  RH  050%=      5-min Rain = 0
KES1 260509Z 17008KT 25/14 A2999 RMK A01 T02460136  RH  050%=      5-min Rain = 0
KES1 260510Z 17009KT 25/14 A2999 RMK A01 T02450136  RH  050%=      5-min Rain = 0
KES1 260511Z 18010KT 25/14 A2999 RMK A01 T02450136  RH  051%=      5-min Rain = 0
KES1 260512Z 18009KT 24/14 A2999 RMK A01 T02440137  RH  051%=      5-min Rain = 0
KES1 260513Z 17008KT 24/14 A2999 RMK A01 T02430137  RH  052%=      5-min Rain = 0
KES1 260514Z 17010KT 24/14 A2999 RMK A01 T02420137  RH  052%=      5-min Rain = 0
KES1 260515Z 17010KT 24/14 A2999 RMK A01 T02420138  RH  052%=      5-min Rain = 0
KES1 260516Z 16011KT 24/14 A2999 RMK A01 T02410137  RH  052%=      5-min Rain = 0
KES1 260517Z 17009KT 24/14 A2999 RMK A01 T02420137  RH  052%=      5-min Rain = 0
KES1 260518Z 16011KT 24/14 A2999 RMK A01 T02420138  RH  052%=      5-min Rain = 0
KES1 260519Z 16011KT 24/14 A2999 RMK A01 T02420138  RH  052%=      5-min Rain = 0
KES1 260520Z 17012KT 24/14 A2999 RMK A01 T02420139  RH  053%=      5-min Rain = 0
KES1 260521Z 17010KT 24/14 A2999 RMK A01 T02410138  RH  053%=      5-min Rain = 0
KES1 260522Z 17010KT 24/14 A2999 RMK A01 T02410140  RH  053%=      5-min Rain = 0
KES1 260523Z 18009KT 24/14 A2999 RMK A01 T02420140  RH  053%=      5-min Rain = 0
KES1 260524Z 18008KT 24/14 A2999 RMK A01 T02420141  RH  053%=      5-min Rain = 0
KES1 260525Z 17009KT 24/14 A2999 RMK A01 T02410141  RH  054%=      5-min Rain = 0
KES1 260526Z 18008KT 24/14 A2999 RMK A01 T02400142  RH  054%=      5-min Rain = 0
KES1 260527Z 17009KT 24/14 A2998 RMK A01 T02390142  RH  055%=      5-min Rain = 0
KES1 260528Z 18009KT 24/14 A2998 RMK A01 T02390142  RH  055%=      5-min Rain = 0
KES1 260529Z 18010KT 24/14 A2998 RMK A01 T02380142  RH  055%=      5-min Rain = 0
KES1 260530Z 18009KT 24/14 A2998 RMK A01 T02380141  RH  054%=      5-min Rain = 0
KES1 260531Z 18010KT 24/14 A2998 RMK A01 T02390140  RH  054%=      5-min Rain = 0
KES1 260532Z 18009KT 24/14 A2998 RMK A01 T02410140  RH  053%=      5-min Rain = 0
KES1 260533Z 17010KT 24/14 A2998 RMK A01 T02420140  RH  053%=      5-min Rain = 0
KES1 260534Z 17010KT 24/14 A2998 RMK A01 T02420140  RH  053%=      5-min Rain = 0
KES1 260535Z 17011KT 24/14 A2998 RMK A01 T02420141  RH  053%=      5-min Rain = 0
KES1 260536Z 16010KT 24/14 A2998 RMK A01 T02420141  RH  053%=      5-min Rain = 0
KES1 260537Z 17009KT 24/14 A2998 RMK A01 T02420142  RH  054%=      5-min Rain = 0
KES1 260538Z 17010KT 24/14 A2998 RMK A01 T02420141  RH  053%=      5-min Rain = 0
KES1 260539Z 17009KT 24/14 A2998 RMK A01 T02430142  RH  053%=      5-min Rain = 0
KES1 260540Z 18008KT 24/14 A2998 RMK A01 T02430143  RH  053%=      5-min Rain = 0
KES1 260541Z 18010KT 24/14 A2998 RMK A01 T02430140  RH  053%=      5-min Rain = 0
KES1 260542Z 18010KT 25/14 A2998 RMK A01 T02450140  RH  052%=      5-min Rain = 0
KES1 260543Z 18010KT 25/14 A2998 RMK A01 T02460140  RH  052%=      5-min Rain = 0
KES1 260544Z 18009KT 25/14 A2998 RMK A01 T02470141  RH  052%=      5-min Rain = 0
KES1 260545Z 19011KT 25/14 A2998 RMK A01 T02460140  RH  052%=      5-min Rain = 0
KES1 260546Z 19010KT 25/14 A2998 RMK A01 T02470141  RH  052%=      5-min Rain = 0
KES1 260547Z 19010KT 25/14 A2998 RMK A01 T02470141  RH  052%=      5-min Rain = 0
KES1 260548Z 19010KT 25/14 A2998 RMK A01 T02470143  RH  052%=      5-min Rain = 0
KES1 260549Z 18011KT 25/14 A2998 RMK A01 T02460142  RH  052%=      5-min Rain = 0
KES1 260550Z 18009KT 25/14 A2998 RMK A01 T02450143  RH  053%=      5-min Rain = 0
KES1 260551Z 17010KT 25/14 A2998 RMK A01 T02450144  RH  053%=      5-min Rain = 0
KES1 260552Z 17010KT 25/14 A2997 RMK A01 T02450144  RH  053%=      5-min Rain = 0
KES1 260553Z 17010KT 25/15 A2997 RMK A01 T02450145  RH  054%=      5-min Rain = 0
KES1 260554Z 18011KT 25/14 A2997 RMK A01 T02450144  RH  053%=      5-min Rain = 0
KES1 260555Z 18010KT 25/14 A2997 RMK A01 T02460144  RH  053%=      5-min Rain = 0
KES1 260556Z 18011KT 25/15 A2997 RMK A01 T02480145  RH  053%=      5-min Rain = 0
KES1 260557Z 17008KT 25/14 A2997 RMK A01 T02480144  RH  052%=      5-min Rain = 0
KES1 260558Z 18010KT 25/15 A2997 RMK A01 T02490145  RH  053%=      5-min Rain = 0
KES1 260559Z 17009KT 25/15 A2997 RMK A01 T02490146  RH  053%=      5-min Rain = 0
KES1 260600Z 17009KT 25/15 A2997 RMK A01 T02490147  RH  053%=      5-min Rain = 0
KES1 260601Z 17010KT 25/15 A2997 RMK A01 T02480147  RH  053%=      5-min Rain = 0
KES1 260602Z 17011KT 25/15 A2997 RMK A01 T02490148  RH  054%=      5-min Rain = 0
KES1 260603Z 17010KT 25/15 A2997 RMK A01 T02490149  RH  054%=      5-min Rain = 0
KES1 260604Z 18009KT 25/15 A2997 RMK A01 T02500149  RH  053%=      5-min Rain = 0
KES1 260605Z 17011KT 25/15 A2997 RMK A01 T02500149  RH  053%=      5-min Rain = 0
KES1 260606Z 17009KT 25/15 A2997 RMK A01 T02510150  RH  053%=      5-min Rain = 0
KES1 260607Z 17009KT 25/15 A2997 RMK A01 T02510150  RH  054%=      5-min Rain = 0
KES1 260608Z 17009KT 25/15 A2997 RMK A01 T02510151  RH  054%=      5-min Rain = 0
KES1 260609Z 16011KT 25/15 A2997 RMK A01 T02510152  RH  054%=      5-min Rain = 0
KES1 260610Z 17011KT 25/15 A2997 RMK A01 T02500152  RH  054%=      5-min Rain = 0
KES1 260611Z 16012KT 25/15 A2996 RMK A01 T02500152  RH  054%=      5-min Rain = 0
KES1 260612Z 16010KT 25/15 A2996 RMK A01 T02500152  RH  055%=      5-min Rain = 0
KES1 260613Z 16011KT 25/15 A2996 RMK A01 T02490153  RH  055%=      5-min Rain = 0
KES1 260614Z 16011KT 25/15 A2996 RMK A01 T02480153  RH  055%=      5-min Rain = 0
KES1 260615Z 16010KT 25/15 A2996 RMK A01 T02480154  RH  056%=      5-min Rain = 0
KES1 260616Z 16011KT 25/15 A2996 RMK A01 T02470153  RH  056%=      5-min Rain = 0
KES1 260617Z 16011KT 25/15 A2996 RMK A01 T02480153  RH  056%=      5-min Rain = 0
KES1 260618Z 17009KT 25/15 A2996 RMK A01 T02480153  RH  056%=      5-min Rain = 0
KES1 260619Z 17008KT 25/15 A2996 RMK A01 T02490154  RH  056%=      5-min Rain = 0
KES1 260620Z 17009KT 25/15 A2997 RMK A01 T02490153  RH  055%=      5-min Rain = 0
KES1 260621Z 18008KT 25/15 A2997 RMK A01 T02500154  RH  055%=      5-min Rain = 0
KES1 260622Z 18007KT 25/15 A2997 RMK A01 T02500154  RH  055%=      5-min Rain = 0
KES1 260623Z 18008KT 25/16 A2997 RMK A01 T02510155  RH  055%=      5-min Rain = 0
KES1 260624Z 18009KT 25/15 A2997 RMK A01 T02510154  RH  055%=      5-min Rain = 0
KES1 260625Z 19009KT 25/15 A2997 RMK A01 T02510154  RH  055%=      5-min Rain = 0
KES1 260626Z 19010KT 25/16 A2997 RMK A01 T02520155  RH  055%=      5-min Rain = 0
KES1 260627Z 19010KT 25/16 A2997 RMK A01 T02520156  RH  055%=      5-min Rain = 0
KES1 260628Z 19010KT 25/16 A2997 RMK A01 T02520157  RH  055%=      5-min Rain = 0
KES1 260629Z 19011KT 25/16 A2997 RMK A01 T02510158  RH  056%=      5-min Rain = 0
KES1 260630Z 19012KT 25/16 A2997 RMK A01 T02510157  RH  056%=      5-min Rain = 0
KES1 260631Z 18011KT 25/16 A2996 RMK A01 T02510157  RH  056%=      5-min Rain = 0
KES1 260632Z 18011KT 25/16 A2996 RMK A01 T02520158  RH  056%=      5-min Rain = 0
KES1 260633Z 17011KT 25/16 A2996 RMK A01 T02520158  RH  056%=      5-min Rain = 0
KES1 260634Z 18012KT 25/16 A2995 RMK A01 T02530159  RH  056%=      5-min Rain = 0
KES1 260635Z 18012KT 25/16 A2995 RMK A01 T02530160  RH  056%=      5-min Rain = 0
KES1 260636Z 18012KT 25/16 A2995 RMK A01 T02530161  RH  056%=      5-min Rain = 0
KES1 260637Z 18012KT 25/16 A2995 RMK A01 T02530161  RH  057%=      5-min Rain = 0
KES1 260638Z 18011KT 25/16 A2995 RMK A01 T02530161  RH  057%=      5-min Rain = 0
KES1 260639Z 18013KT 25/16 A2995 RMK A01 T02530161  RH  056%=      5-min Rain = 0
KES1 260640Z 18012KT 25/16 A2995 RMK A01 T02540160  RH  056%=      5-min Rain = 0
KES1 260641Z 18010KT 25/16 A2995 RMK A01 T02540161  RH  056%=      5-min Rain = 0
KES1 260642Z 18012G18KT 25/16 A2995 RMK A01 T02540160  RH  056%=      5-min Rain = 0
KES1 260643Z 18012KT 26/16 A2995 RMK A01 T02550160  RH  056%=      5-min Rain = 0
KES1 260644Z 18010KT 26/16 A2995 RMK A01 T02560160  RH  056%=      5-min Rain = 0
KES1 260645Z 17009KT 26/16 A2995 RMK A01 T02560161  RH  056%=      5-min Rain = 0
KES1 260646Z 16010KT 26/16 A2995 RMK A01 T02550161  RH  056%=      5-min Rain = 0
KES1 260647Z 17012KT 26/16 A2995 RMK A01 T02550160  RH  056%=      5-min Rain = 0
KES1 260648Z 16011KT 26/16 A2995 RMK A01 T02550159  RH  056%=      5-min Rain = 0
KES1 260649Z 16010KT 26/16 A2995 RMK A01 T02550161  RH  056%=      5-min Rain = 0
KES1 260650Z 16009KT 25/16 A2996 RMK A01 T02540161  RH  056%=      5-min Rain = 0
KES1 260651Z 16010KT 25/16 A2996 RMK A01 T02530161  RH  056%=      5-min Rain = 0
KES1 260652Z 16009KT 25/16 A2996 RMK A01 T02530160  RH  056%=      5-min Rain = 0
KES1 260653Z 16010KT 25/16 A2996 RMK A01 T02530160  RH  057%=      5-min Rain = 0
KES1 260654Z 17009KT 25/16 A2996 RMK A01 T02520160  RH  057%=      5-min Rain = 0
KES1 260655Z 16009KT 25/16 A2996 RMK A01 T02520160  RH  057%=      5-min Rain = 0
KES1 260656Z 16010KT 25/16 A2996 RMK A01 T02520160  RH  057%=      5-min Rain = 0
KES1 260657Z 16008KT 25/16 A2997 RMK A01 T02520160  RH  057%=      5-min Rain = 0
KES1 260658Z 16007KT 25/16 A2997 RMK A01 T02510160  RH  057%=      5-min Rain = 0
KES1 260659Z 16010KT 25/16 A2997 RMK A01 T02510160  RH  057%=      5-min Rain = 0
KES1 260700Z 16009KT 25/16 A2997 RMK A01 T02510160  RH  057%=      5-min Rain = 0
KES1 260701Z 16010KT 25/16 A2997 RMK A01 T02500159  RH  057%=      5-min Rain = 0
KES1 260702Z 16009KT 25/16 A2997 RMK A01 T02500160  RH  057%=      5-min Rain = 0
KES1 260703Z 16009KT 25/16 A2997 RMK A01 T02490160  RH  057%=      5-min Rain = 0
KES1 260704Z 16010KT 25/16 A2997 RMK A01 T02490160  RH  057%=      5-min Rain = 0
KES1 260705Z 16008KT 25/16 A2997 RMK A01 T02490160  RH  058%=      5-min Rain = 0
KES1 260706Z 16008KT 25/16 A2997 RMK A01 T02490161  RH  058%=      5-min Rain = 0
KES1 260707Z 16008KT 25/16 A2997 RMK A01 T02480161  RH  058%=      5-min Rain = 0
KES1 260708Z 16009KT 25/16 A2997 RMK A01 T02480161  RH  058%=      5-min Rain = 0
KES1 260709Z 16009KT 25/16 A2997 RMK A01 T02490161  RH  058%=      5-min Rain = 0
KES1 260710Z 16009KT 25/16 A2997 RMK A01 T02490160  RH  058%=      5-min Rain = 0
KES1 260711Z 16009KT 25/16 A2997 RMK A01 T02490160  RH  058%=      5-min Rain = 0
KES1 260712Z 15008KT 25/16 A2997 RMK A01 T02490161  RH  058%=      5-min Rain = 0
KES1 260713Z 16008KT 25/16 A2997 RMK A01 T02490161  RH  058%=      5-min Rain = 0
KES1 260714Z 16008G13KT 25/16 A2997 RMK A01 T02490162  RH  058%=      5-min Rain = 0
KES1 260715Z 16008KT 25/16 A2997 RMK A01 T02490161  RH  058%=      5-min Rain = 0
KES1 260716Z 16008KT 25/16 A2997 RMK A01 T02490161  RH  058%=      5-min Rain = 0
KES1 260717Z 16007KT 25/16 A2997 RMK A01 T02490161  RH  058%=      5-min Rain = 0
KES1 260718Z 15009KT 25/16 A2997 RMK A01 T02490161  RH  058%=      5-min Rain = 0
KES1 260719Z 16008KT 25/16 A2997 RMK A01 T02490160  RH  058%=      5-min Rain = 0
KES1 260720Z 16008KT 25/16 A2997 RMK A01 T02490161  RH  058%=      5-min Rain = 0
KES1 260721Z 16008KT 25/16 A2997 RMK A01 T02490161  RH  058%=      5-min Rain = 0
KES1 260722Z 15007KT 25/16 A2998 RMK A01 T02490160  RH  058%=      5-min Rain = 0
KES1 260723Z 16008KT 25/16 A2998 RMK A01 T02480160  RH  058%=      5-min Rain = 0
KES1 260724Z 16010KT 25/16 A2998 RMK A01 T02480160  RH  058%=      5-min Rain = 0
KES1 260725Z 16010KT 25/16 A2998 RMK A01 T02480159  RH  057%=      5-min Rain = 0
KES1 260726Z 15009KT 25/16 A2997 RMK A01 T02480159  RH  057%=      5-min Rain = 0
KES1 260727Z 15009KT 25/16 A2997 RMK A01 T02480159  RH  058%=      5-min Rain = 0
KES1 260728Z 15010KT 25/16 A2997 RMK A01 T02480159  RH  058%=      5-min Rain = 0
KES1 260729Z 15009KT 25/16 A2997 RMK A01 T02470159  RH  058%=      5-min Rain = 0
KES1 260730Z 15010KT 25/16 A2997 RMK A01 T02470159  RH  058%=      5-min Rain = 0
KES1 260731Z 15009KT 25/16 A2997 RMK A01 T02460159  RH  058%=      5-min Rain = 0
KES1 260732Z 15008KT 25/16 A2997 RMK A01 T02460159  RH  058%=      5-min Rain = 0
KES1 260733Z 16008KT 25/16 A2998 RMK A01 T02460159  RH  058%=      5-min Rain = 0
KES1 260734Z 15010KT 25/16 A2998 RMK A01 T02460159  RH  058%=      5-min Rain = 0
KES1 260735Z 15009KT 25/16 A2998 RMK A01 T02460159  RH  058%=      5-min Rain = 0
KES1 260736Z 16009KT 25/16 A2998 RMK A01 T02460158  RH  058%=      5-min Rain = 0
KES1 260737Z 16010KT 25/16 A2998 RMK A01 T02460158  RH  058%=      5-min Rain = 0
KES1 260738Z 15008KT 25/16 A2998 RMK A01 T02470159  RH  058%=      5-min Rain = 0
KES1 260739Z 15008KT 25/16 A2998 RMK A01 T02460159  RH  058%=      5-min Rain = 0
KES1 260740Z 15008KT 25/16 A2998 RMK A01 T02450159  RH  058%=      5-min Rain = 0
KES1 260741Z 15009KT 24/16 A2998 RMK A01 T02440159  RH  059%=      5-min Rain = 0
KES1 260742Z 15008KT 24/16 A2998 RMK A01 T02440159  RH  059%=      5-min Rain = 0
KES1 260743Z 15008KT 24/16 A2998 RMK A01 T02440159  RH  059%=      5-min Rain = 0
KES1 260744Z 14007KT 24/16 A2998 RMK A01 T02430159  RH  059%=      5-min Rain = 0
KES1 260745Z 14007KT 24/16 A2998 RMK A01 T02420159  RH  060%=      5-min Rain = 0
KES1 260746Z 14006KT 24/16 A2998 RMK A01 T02410159  RH  060%=      5-min Rain = 0
KES1 260747Z 14006KT 24/16 A2998 RMK A01 T02410160  RH  060%=      5-min Rain = 0
KES1 260748Z 14007KT 24/16 A2998 RMK A01 T02400159  RH  060%=      5-min Rain = 0
KES1 260749Z 14006KT 24/16 A2998 RMK A01 T02410159  RH  060%=      5-min Rain = 0
KES1 260750Z 14007KT 24/16 A2998 RMK A01 T02400160  RH  061%=      5-min Rain = 0
KES1 260751Z 14006KT 24/16 A2998 RMK A01 T02400160  RH  061%=      5-min Rain = 0
KES1 260752Z 14007KT 24/16 A2999 RMK A01 T02400159  RH  061%=      5-min Rain = 0
KES1 260753Z 15007KT 24/16 A2999 RMK A01 T02390159  RH  061%=      5-min Rain = 0
KES1 260754Z 15008KT 24/16 A2998 RMK A01 T02390159  RH  061%=      5-min Rain = 0
KES1 260755Z 14007KT 24/16 A2998 RMK A01 T02390158  RH  061%=      5-min Rain = 0
KES1 260756Z 15008KT 24/16 A2998 RMK A01 T02390159  RH  061%=      5-min Rain = 0
KES1 260757Z 15007KT 24/16 A2998 RMK A01 T02380159  RH  061%=      5-min Rain = 0
KES1 260758Z 16007KT 24/16 A2998 RMK A01 T02380159  RH  061%=      5-min Rain = 0
KES1 260759Z 16007KT 24/16 A2998 RMK A01 T02370158  RH  061%=      5-min Rain = 0
KES1 260800Z 16007KT 24/16 A2998 RMK A01 T02370158  RH  061%=      5-min Rain = 0
KES1 260801Z 15008KT 24/16 A2998 RMK A01 T02370159  RH  061%=      5-min Rain = 0
KES1 260802Z 16007KT 24/16 A2998 RMK A01 T02360158  RH  061%=      5-min Rain = 0
KES1 260803Z 15007KT 24/16 A2998 RMK A01 T02370159  RH  062%=      5-min Rain = 0
KES1 260804Z 15007KT 24/16 A2998 RMK A01 T02360159  RH  062%=      5-min Rain = 0
KES1 260805Z 16008KT 24/16 A2998 RMK A01 T02350158  RH  062%=      5-min Rain = 0
KES1 260806Z 15008KT 24/16 A2998 RMK A01 T02350158  RH  062%=      5-min Rain = 0
KES1 260807Z 15007KT 24/16 A2998 RMK A01 T02350158  RH  062%=      5-min Rain = 0
KES1 260808Z 16008KT 23/16 A2998 RMK A01 T02340159  RH  063%=      5-min Rain = 0
KES1 260809Z 15008KT 23/16 A2998 RMK A01 T02320158  RH  063%=      5-min Rain = 0
KES1 260810Z 15008KT 23/16 A2998 RMK A01 T02320158  RH  063%=      5-min Rain = 0
KES1 260811Z 15007KT 23/16 A2998 RMK A01 T02310158  RH  064%=      5-min Rain = 0
KES1 260812Z 15008KT 23/16 A2998 RMK A01 T02310158  RH  064%=      5-min Rain = 0
KES1 260813Z 15008KT 23/16 A2998 RMK A01 T02300158  RH  064%=      5-min Rain = 0
KES1 260814Z 15008KT 23/16 A2998 RMK A01 T02300158  RH  064%=      5-min Rain = 0
KES1 260815Z 15008KT 23/16 A2998 RMK A01 T02300158  RH  064%=      5-min Rain = 0
KES1 260816Z 15008KT 23/16 A2998 RMK A01 T02290159  RH  064%=      5-min Rain = 0
KES1 260817Z 15008KT 23/16 A2998 RMK A01 T02290159  RH  065%=      5-min Rain = 0
KES1 260818Z 15008KT 23/16 A2998 RMK A01 T02280159  RH  065%=      5-min Rain = 0
KES1 260819Z 14009KT 23/16 A2998 RMK A01 T02270159  RH  065%=      5-min Rain = 0
KES1 260820Z 15009KT 23/16 A2998 RMK A01 T02270159  RH  065%=      5-min Rain = 0
KES1 260821Z 15009KT 23/16 A2998 RMK A01 T02260159  RH  066%=      5-min Rain = 0
KES1 260822Z 15008KT 23/16 A2998 RMK A01 T02260159  RH  066%=      5-min Rain = 0
KES1 260823Z 14008KT 23/16 A2998 RMK A01 T02260159  RH  066%=      5-min Rain = 0
KES1 260824Z 14008KT 23/16 A2998 RMK A01 T02260159  RH  066%=      5-min Rain = 0
KES1 260825Z 14008KT 23/16 A2998 RMK A01 T02260159  RH  066%=      5-min Rain = 0
KES1 260826Z 14009KT 23/16 A2998 RMK A01 T02260158  RH  066%=      5-min Rain = 0
KES1 260827Z 14009KT 23/16 A2998 RMK A01 T02270158  RH  065%=      5-min Rain = 0
KES1 260828Z 14009KT 23/16 A2998 RMK A01 T02280159  RH  065%=      5-min Rain = 0
KES1 260829Z 14009KT 23/16 A2998 RMK A01 T02280158  RH  065%=      5-min Rain = 0
KES1 260830Z 14010KT 23/16 A2998 RMK A01 T02290159  RH  065%=      5-min Rain = 0
KES1 260831Z 14009KT 23/16 A2998 RMK A01 T02290158  RH  064%=      5-min Rain = 0
KES1 260832Z 15008KT 23/16 A2998 RMK A01 T02290158  RH  064%=      5-min Rain = 0
KES1 260833Z 14008KT 23/16 A2998 RMK A01 T02290158  RH  065%=      5-min Rain = 0
KES1 260834Z 14007KT 23/16 A2998 RMK A01 T02290159  RH  065%=      5-min Rain = 0
KES1 260835Z 15007KT 23/16 A2998 RMK A01 T02280159  RH  065%=      5-min Rain = 0
KES1 260836Z 15007KT 23/16 A2998 RMK A01 T02270159  RH  065%=      5-min Rain = 0
KES1 260837Z 15008KT 23/16 A2997 RMK A01 T02270158  RH  065%=      5-min Rain = 0
KES1 260838Z 15007KT 23/16 A2997 RMK A01 T02270158  RH  065%=      5-min Rain = 0
KES1 260839Z 16008KT 23/16 A2997 RMK A01 T02270158  RH  065%=      5-min Rain = 0
KES1 260840Z 16007KT 23/16 A2997 RMK A01 T02270158  RH  065%=      5-min Rain = 0
KES1 260841Z 16007KT 23/16 A2997 RMK A01 T02260158  RH  065%=      5-min Rain = 0
KES1 260842Z 16007KT 23/16 A2997 RMK A01 T02260158  RH  065%=      5-min Rain = 0
KES1 260843Z 16006KT 23/16 A2997 RMK A01 T02250158  RH  066%=      5-min Rain = 0
KES1 260844Z 16007KT 23/16 A2997 RMK A01 T02250158  RH  066%=      5-min Rain = 0
KES1 260845Z 16007KT 22/16 A2997 RMK A01 T02240158  RH  066%=      5-min Rain = 0
KES1 260846Z 16008KT 22/16 A2997 RMK A01 T02230158  RH  066%=      5-min Rain = 0
KES1 260847Z 16007KT 22/16 A2997 RMK A01 T02230158  RH  066%=      5-min Rain = 0
KES1 260848Z 16007KT 22/16 A2997 RMK A01 T02230158  RH  067%=      5-min Rain = 0
KES1 260849Z 16006KT 22/16 A2997 RMK A01 T02230158  RH  067%=      5-min Rain = 0
KES1 260850Z 16006KT 22/16 A2997 RMK A01 T02220158  RH  067%=      5-min Rain = 0
KES1 260851Z 16007KT 22/16 A2997 RMK A01 T02210158  RH  067%=      5-min Rain = 0
KES1 260852Z 16007KT 22/16 A2997 RMK A01 T02200158  RH  067%=      5-min Rain = 0
KES1 260853Z 16007KT 22/16 A2997 RMK A01 T02200158  RH  068%=      5-min Rain = 0
KES1 260854Z 16007KT 22/16 A2997 RMK A01 T02200158  RH  068%=      5-min Rain = 0
KES1 260855Z 16007KT 22/16 A2997 RMK A01 T02200158  RH  068%=      5-min Rain = 0
KES1 260856Z 16007KT 22/16 A2996 RMK A01 T02200158  RH  068%=      5-min Rain = 0
KES1 260857Z 17006KT 22/16 A2996 RMK A01 T02190158  RH  068%=      5-min Rain = 0
KES1 260858Z 17007KT 22/16 A2996 RMK A01 T02190159  RH  068%=      5-min Rain = 0
KES1 260859Z 17007KT 22/16 A2996 RMK A01 T02190158  RH  068%=      5-min Rain = 0
KES1 260900Z 17006KT 22/16 A2996 RMK A01 T02190159  RH  068%=      5-min Rain = 0
KES1 260901Z 16007KT 22/16 A2997 RMK A01 T02200159  RH  068%=      5-min Rain = 0
KES1 260902Z 16007KT 22/16 A2997 RMK A01 T02200159  RH  068%=      5-min Rain = 0
KES1 260903Z 17007KT 22/16 A2997 RMK A01 T02210160  RH  068%=      5-min Rain = 0
KES1 260904Z 17007KT 22/16 A2997 RMK A01 T02200159  RH  068%=      5-min Rain = 0
KES1 260905Z 17007KT 22/16 A2997 RMK A01 T02200159  RH  068%=      5-min Rain = 0
KES1 260906Z 16006KT 22/16 A2997 RMK A01 T02210159  RH  068%=      5-min Rain = 0
KES1 260907Z 16007KT 22/16 A2997 RMK A01 T02200160  RH  068%=      5-min Rain = 0
KES1 260908Z 15006KT 22/16 A2997 RMK A01 T02200160  RH  069%=      5-min Rain = 0
KES1 260909Z 15005KT 22/16 A2997 RMK A01 T02180160  RH  069%=      5-min Rain = 0
KES1 260910Z 15005KT 22/16 A2997 RMK A01 T02180160  RH  070%=      5-min Rain = 0
KES1 260911Z 15006KT 22/16 A2997 RMK A01 T02160160  RH  070%=      5-min Rain = 0
KES1 260912Z 14006KT 22/16 A2997 RMK A01 T02150159  RH  070%=      5-min Rain = 0
KES1 260913Z 14006KT 21/16 A2997 RMK A01 T02140159  RH  071%=      5-min Rain = 0
KES1 260914Z 13006KT 21/16 A2997 RMK A01 T02130160  RH  071%=      5-min Rain = 0
KES1 260915Z 13006KT 21/16 A2997 RMK A01 T02120159  RH  072%=      5-min Rain = 0
KES1 260916Z 14006KT 21/16 A2998 RMK A01 T02120159  RH  072%=      5-min Rain = 0
KES1 260917Z 14006KT 21/16 A2998 RMK A01 T02120159  RH  072%=      5-min Rain = 0
KES1 260918Z 13005KT 21/16 A2998 RMK A01 T02130160  RH  072%=      5-min Rain = 0
KES1 260919Z 13005KT 21/16 A2998 RMK A01 T02130160  RH  072%=      5-min Rain = 0
KES1 260920Z 14006KT 21/16 A2998 RMK A01 T02130160  RH  072%=      5-min Rain = 0
KES1 260921Z 14005KT 21/16 A2998 RMK A01 T02130160  RH  072%=      5-min Rain = 0
KES1 260922Z 13004KT 21/16 A2998 RMK A01 T02130160  RH  072%=      5-min Rain = 0
KES1 260923Z 13004KT 21/16 A2998 RMK A01 T02130160  RH  072%=      5-min Rain = 0
KES1 260924Z 13004KT 21/16 A2998 RMK A01 T02130160  RH  072%=      5-min Rain = 0
KES1 260925Z 14004KT 21/16 A2998 RMK A01 T02130160  RH  072%=      5-min Rain = 0
KES1 260926Z 14004KT 21/16 A2998 RMK A01 T02120160  RH  072%=      5-min Rain = 0
KES1 260927Z 14005KT 21/16 A2998 RMK A01 T02120161  RH  072%=      5-min Rain = 0
KES1 260928Z 14005KT 21/16 A2998 RMK A01 T02120160  RH  072%=      5-min Rain = 0
KES1 260929Z 14005KT 21/16 A2998 RMK A01 T02120160  RH  072%=      5-min Rain = 0
KES1 260930Z 15005KT 21/16 A2998 RMK A01 T02130160  RH  072%=      5-min Rain = 0
KES1 260931Z 15005KT 21/16 A2998 RMK A01 T02130161  RH  072%=      5-min Rain = 0
KES1 260932Z 15006KT 21/16 A2998 RMK A01 T02130161  RH  072%=      5-min Rain = 0
KES1 260933Z 15005KT 21/16 A2998 RMK A01 T02130161  RH  072%=      5-min Rain = 0
KES1 260934Z 15005KT 21/16 A2998 RMK A01 T02140161  RH  072%=      5-min Rain = 0
KES1 260935Z 15005KT 21/16 A2998 RMK A01 T02140161  RH  072%=      5-min Rain = 0
KES1 260936Z 15004KT 21/16 A2998 RMK A01 T02140162  RH  072%=      5-min Rain = 0
KES1 260937Z 15003KT 21/16 A2998 RMK A01 T02140162  RH  072%=      5-min Rain = 0
KES1 260938Z 15004KT 21/16 A2998 RMK A01 T02140163  RH  072%=      5-min Rain = 0
KES1 260939Z 15004KT 21/16 A2998 RMK A01 T02140163  RH  072%=      5-min Rain = 0
KES1 260940Z 15004KT 21/16 A2998 RMK A01 T02140162  RH  072%=      5-min Rain = 0
KES1 260941Z 15004KT 21/16 A2998 RMK A01 T02140162  RH  072%=      5-min Rain = 0
KES1 260942Z 15004KT 21/16 A2998 RMK A01 T02140162  RH  072%=      5-min Rain = 0
KES1 260943Z 15004KT 21/16 A2998 RMK A01 T02140163  RH  073%=      5-min Rain = 0
KES1 260944Z 15005KT 21/16 A2998 RMK A01 T02140163  RH  073%=      5-min Rain = 0
KES1 260945Z 15005KT 21/16 A2998 RMK A01 T02140163  RH  073%=      5-min Rain = 0
KES1 260946Z 16004KT 21/16 A2998 RMK A01 T02140163  RH  073%=      5-min Rain = 0
KES1 260947Z 16005KT 21/16 A2998 RMK A01 T02130163  RH  073%=      5-min Rain = 0
KES1 260948Z 16004KT 21/16 A2998 RMK A01 T02130163  RH  073%=      5-min Rain = 0
KES1 260949Z 17004KT 21/16 A2999 RMK A01 T02130163  RH  073%=      5-min Rain = 0
KES1 260950Z 17005KT 21/16 A2999 RMK A01 T02130163  RH  073%=      5-min Rain = 0
KES1 260951Z 18005KT 21/16 A2999 RMK A01 T02130163  RH  073%=      5-min Rain = 0
KES1 260952Z 17005KT 21/16 A2999 RMK A01 T02130163  RH  073%=      5-min Rain = 0
KES1 260953Z 17005KT 21/16 A2999 RMK A01 T02130164  RH  073%=      5-min Rain = 0
KES1 260954Z 17004KT 21/16 A2999 RMK A01 T02130164  RH  074%=      5-min Rain = 0
KES1 260955Z 17005KT 21/16 A2999 RMK A01 T02130164  RH  074%=      5-min Rain = 0
KES1 260956Z 17004KT 21/16 A2999 RMK A01 T02120164  RH  074%=      5-min Rain = 0
KES1 260957Z 18004KT 21/16 A2999 RMK A01 T02120164  RH  074%=      5-min Rain = 0
KES1 260958Z 18004KT 21/16 A2999 RMK A01 T02120164  RH  074%=      5-min Rain = 0
KES1 260959Z 18005KT 21/16 A2999 RMK A01 T02120164  RH  074%=      5-min Rain = 0
KES1 261000Z 17005KT 21/17 A2999 RMK A01 T02120165  RH  074%=      5-min Rain = 0
KES1 261001Z 17005KT 21/17 A2999 RMK A01 T02120165  RH  075%=      5-min Rain = 0
KES1 261002Z 18004KT 21/17 A2999 RMK A01 T02110165  RH  075%=      5-min Rain = 0
KES1 261003Z 18005KT 21/17 A2999 RMK A01 T02110166  RH  075%=      5-min Rain = 0
KES1 261004Z 18004KT 21/17 A2999 RMK A01 T02100166  RH  076%=      5-min Rain = 0
KES1 261005Z 18005KT 21/17 A2999 RMK A01 T02100166  RH  076%=      5-min Rain = 0
KES1 261006Z 18005KT 21/17 A2999 RMK A01 T02100167  RH  076%=      5-min Rain = 0
KES1 261007Z 18005KT 21/17 A2999 RMK A01 T02110167  RH  076%=      5-min Rain = 0
KES1 261008Z 18004KT 21/17 A2999 RMK A01 T02100167  RH  076%=      5-min Rain = 0
KES1 261009Z 18004KT 21/17 A30 RMK A01 T02100168  RH  076%=      5-min Rain = 0
KES1 261010Z 19003KT 21/17 A30 RMK A01 T02100168  RH  077%=      5-min Rain = 0
KES1 261011Z 19003KT 21/17 A30 RMK A01 T02100168  RH  077%=      5-min Rain = 0
KES1 261012Z 19003KT 21/17 A30 RMK A01 T02100167  RH  076%=      5-min Rain = 0
KES1 261013Z 20002KT 21/17 A30 RMK A01 T02100167  RH  076%=      5-min Rain = 0
KES1 261014Z 21002KT 21/16 A30 RMK A01 T02090164  RH  076%=      5-min Rain = 0
KES1 261015Z 20002KT 21/16 A30 RMK A01 T02070164  RH  076%=      5-min Rain = 0
KES1 261016Z 19002KT 21/16 A30 RMK A01 T02060164  RH  077%=      5-min Rain = 0
KES1 261017Z 18002KT 21/16 A30 RMK A01 T02050163  RH  077%=      5-min Rain = 0
KES1 261018Z 16002KT 20/16 A30 RMK A01 T02040164  RH  078%=      5-min Rain = 0
KES1 261019Z 16002KT 20/17 A30 RMK A01 T02030165  RH  079%=      5-min Rain = 0
KES1 261020Z 16002KT 20/17 A30 RMK A01 T02030167  RH  080%=      5-min Rain = 0
KES1 261021Z 17002KT 20/17 A30 RMK A01 T02030167  RH  080%=      5-min Rain = 0
KES1 261022Z 16000KT 20/17 A30 RMK A01 T02030165  RH  079%=      5-min Rain = 0
KES1 261023Z 21001KT 20/17 A3001 RMK A01 T02030165  RH  079%=      5-min Rain = 0
KES1 261024Z 24000KT 20/16 A3001 RMK A01 T02030164  RH  078%=      5-min Rain = 0
KES1 261025Z 27000KT 20/16 A3001 RMK A01 T02020164  RH  078%=      5-min Rain = 0
KES1 261026Z 28001KT 20/16 A3001 RMK A01 T02010164  RH  079%=      5-min Rain = 0
KES1 261027Z 29002KT 20/16 A3001 RMK A01 T02000164  RH  079%=      5-min Rain = 0
KES1 261028Z 29002KT 20/17 A3001 RMK A01 T02000166  RH  081%=      5-min Rain = 0
KES1 261029Z 29002KT 20/17 A3001 RMK A01 T01990170  RH  083%=      5-min Rain = 0
KES1 261030Z 29002KT 20/17 A3001 RMK A01 T01970169  RH  084%=      5-min Rain = 0
KES1 261031Z 29002KT 20/17 A3002 RMK A01 T01960168  RH  084%=      5-min Rain = 0
KES1 261032Z 29002KT 20/17 A3002 RMK A01 T01950167  RH  084%=      5-min Rain = 0
KES1 261033Z 29002KT 20/17 A3002 RMK A01 T01950166  RH  083%=      5-min Rain = 0
KES1 261034Z 29002KT 20/17 A3002 RMK A01 T01950166  RH  083%=      5-min Rain = 0
KES1 261035Z 28002KT 20/17 A3002 RMK A01 T01950165  RH  083%=      5-min Rain = 0
KES1 261036Z 27001KT 20/17 A3002 RMK A01 T01960165  RH  082%=      5-min Rain = 0
KES1 261037Z 28002KT 20/17 A3002 RMK A01 T01970165  RH  082%=      5-min Rain = 0
KES1 261038Z 27002KT 20/17 A3002 RMK A01 T01980166  RH  082%=      5-min Rain = 0
KES1 261039Z 24002KT 20/17 A3002 RMK A01 T01980166  RH  082%=      5-min Rain = 0
KES1 261040Z 22002KT 20/17 A3002 RMK A01 T01980167  RH  082%=      5-min Rain = 0
KES1 261041Z 20002KT 20/17 A3002 RMK A01 T01990166  RH  082%=      5-min Rain = 0
KES1 261042Z 18001KT 20/17 A3002 RMK A01 T01980165  RH  081%=      5-min Rain = 0
KES1 261043Z 18002KT 20/16 A3002 RMK A01 T01960164  RH  082%=      5-min Rain = 0
KES1 261044Z 15002KT 19/16 A3002 RMK A01 T01940164  RH  083%=      5-min Rain = 0
KES1 261045Z 15002KT 19/16 A3003 RMK A01 T01920164  RH  084%=      5-min Rain = 0
KES1 261046Z 13002KT 19/17 A3003 RMK A01 T01920165  RH  084%=      5-min Rain = 0
KES1 261047Z 14002KT 19/17 A3003 RMK A01 T01920165  RH  084%=      5-min Rain = 0
KES1 261048Z 15002KT 19/17 A3003 RMK A01 T01920165  RH  085%=      5-min Rain = 0
KES1 261049Z 15002KT 19/17 A3003 RMK A01 T01920165  RH  085%=      5-min Rain = 0
KES1 261050Z 15002KT 19/17 A3002 RMK A01 T01920165  RH  085%=      5-min Rain = 0
KES1 261051Z 15002KT 19/17 A3002 RMK A01 T01920165  RH  085%=      5-min Rain = 0
KES1 261052Z 15002KT 19/17 A3002 RMK A01 T01930167  RH  085%=      5-min Rain = 0
KES1 261053Z 17002KT 19/17 A3002 RMK A01 T01940168  RH  085%=      5-min Rain = 0
KES1 261054Z 17002KT 20/17 A3002 RMK A01 T01950168  RH  084%=      5-min Rain = 0
KES1 261055Z 17002KT 20/17 A3002 RMK A01 T01970169  RH  084%=      5-min Rain = 0
KES1 261056Z 17002KT 20/17 A3002 RMK A01 T01990169  RH  083%=      5-min Rain = 0
KES1 261057Z 17002KT 20/17 A3002 RMK A01 T02000169  RH  082%=      5-min Rain = 0
KES1 261058Z 17002KT 20/17 A3002 RMK A01 T02010168  RH  081%=      5-min Rain = 0
KES1 261059Z 17002KT 20/17 A3002 RMK A01 T02010168  RH  081%=      5-min Rain = 0
KES1 261100Z 17002KT 20/17 A3002 RMK A01 T01990166  RH  081%=      5-min Rain = 0
KES1 261101Z 16002KT 20/17 A3003 RMK A01 T01970166  RH  082%=      5-min Rain = 0
KES1 261102Z 15002KT 20/17 A3003 RMK A01 T01950166  RH  084%=      5-min Rain = 0
KES1 261103Z 15002KT 19/17 A3003 RMK A01 T01930166  RH  085%=      5-min Rain = 0
KES1 261104Z 15002KT 19/17 A3003 RMK A01 T01910166  RH  085%=      5-min Rain = 0
KES1 261105Z 14002KT 19/17 A3003 RMK A01 T01900166  RH  086%=      5-min Rain = 0
KES1 261106Z 14002KT 19/17 A3003 RMK A01 T01890166  RH  087%=      5-min Rain = 0
KES1 261107Z 14002KT 19/17 A3003 RMK A01 T01890167  RH  087%=      5-min Rain = 0
KES1 261108Z 14002KT 19/17 A3003 RMK A01 T01890168  RH  087%=      5-min Rain = 0
KES1 261109Z 15003KT 19/17 A3003 RMK A01 T01890168  RH  088%=      5-min Rain = 0
KES1 261110Z 16003KT 19/17 A3003 RMK A01 T01900169  RH  088%=      5-min Rain = 0
KES1 261111Z 16003KT 19/17 A3003 RMK A01 T01910170  RH  088%=      5-min Rain = 0
KES1 261112Z 17003KT 19/17 A3003 RMK A01 T01930172  RH  088%=      5-min Rain = 0
KES1 261113Z 17003KT 20/17 A3003 RMK A01 T01950172  RH  087%=      5-min Rain = 0
KES1 261114Z 18003KT 20/17 A3003 RMK A01 T01980173  RH  085%=      5-min Rain = 0
KES1 261115Z 19003KT 20/17 A3003 RMK A01 T02000172  RH  084%=      5-min Rain = 0
KES1 261116Z 18003KT 20/17 A3003 RMK A01 T02010173  RH  084%=      5-min Rain = 0
KES1 261117Z 18003KT 20/17 A3003 RMK A01 T02010173  RH  084%=      5-min Rain = 0
KES1 261118Z 18004KT 20/17 A3003 RMK A01 T02020173  RH  084%=      5-min Rain = 0
KES1 261119Z 18004KT 20/17 A3003 RMK A01 T02020173  RH  083%=      5-min Rain = 0
KES1 261120Z 18004KT 20/17 A3003 RMK A01 T02020173  RH  083%=      5-min Rain = 0
KES1 261121Z 18004KT 20/17 A3003 RMK A01 T02010171  RH  083%=      5-min Rain = 0
KES1 261122Z 17003KT 20/17 A3003 RMK A01 T02000172  RH  084%=      5-min Rain = 0
KES1 261123Z 17003KT 20/17 A3003 RMK A01 T01980171  RH  084%=      5-min Rain = 0
KES1 261124Z 16003KT 20/17 A3003 RMK A01 T01980172  RH  085%=      5-min Rain = 0
KES1 261125Z 15003KT 20/17 A3003 RMK A01 T01970172  RH  085%=      5-min Rain = 0
KES1 261126Z 15003KT 20/17 A3003 RMK A01 T01970172  RH  085%=      5-min Rain = 0
KES1 261127Z 15002KT 20/17 A3003 RMK A01 T01960171  RH  085%=      5-min Rain = 0
KES1 261128Z 15003KT 20/17 A3003 RMK A01 T01950171  RH  086%=      5-min Rain = 0
KES1 261129Z 15003KT 20/17 A3003 RMK A01 T01950172  RH  087%=      5-min Rain = 0
KES1 261130Z 14002KT 20/17 A3003 RMK A01 T01950172  RH  087%=      5-min Rain = 0
KES1 261131Z 14002KT 20/17 A3003 RMK A01 T01950173  RH  087%=      5-min Rain = 0
KES1 261132Z 14003KT 20/17 A3003 RMK A01 T01950172  RH  087%=      5-min Rain = 0
KES1 261133Z 14003KT 20/17 A3003 RMK A01 T01950172  RH  086%=      5-min Rain = 0
KES1 261134Z 14004KT 20/17 A3004 RMK A01 T01950172  RH  086%=      5-min Rain = 0
KES1 261135Z 14004KT 20/17 A3004 RMK A01 T01950172  RH  087%=      5-min Rain = 0
KES1 261136Z 14004KT 19/17 A3004 RMK A01 T01940172  RH  087%=      5-min Rain = 0
KES1 261137Z 14004KT 19/17 A3004 RMK A01 T01940173  RH  087%=      5-min Rain = 0
KES1 261138Z 14004KT 19/17 A3004 RMK A01 T01940173  RH  088%=      5-min Rain = 0
KES1 261139Z 13004KT 19/17 A3004 RMK A01 T01940173  RH  088%=      5-min Rain = 0
KES1 261140Z 13005KT 19/17 A3004 RMK A01 T01940173  RH  088%=      5-min Rain = 0
KES1 261141Z 13005KT 19/17 A3004 RMK A01 T01930173  RH  088%=      5-min Rain = 0
KES1 261142Z 14005KT 19/17 A3004 RMK A01 T01930173  RH  088%=      5-min Rain = 0
KES1 261143Z 14005KT 19/17 A3004 RMK A01 T01920173  RH  089%=      5-min Rain = 0
KES1 261144Z 14005KT 19/17 A3004 RMK A01 T01930174  RH  089%=      5-min Rain = 0
KES1 261145Z 15005KT 19/18 A3004 RMK A01 T01940175  RH  089%=      5-min Rain = 0
KES1 261146Z 16005KT 20/18 A3004 RMK A01 T01950176  RH  089%=      5-min Rain = 0
KES1 261147Z 16005KT 20/18 A3004 RMK A01 T01960177  RH  089%=      5-min Rain = 0
KES1 261148Z 16005KT 20/18 A3004 RMK A01 T01970177  RH  088%=      5-min Rain = 0
KES1 261149Z 16005KT 20/18 A3004 RMK A01 T01980177  RH  088%=      5-min Rain = 0
KES1 261150Z 16005KT 20/18 A3004 RMK A01 T02000178  RH  087%=      5-min Rain = 0
KES1 261151Z 16005KT 20/18 A3004 RMK A01 T02010177  RH  086%=      5-min Rain = 0
KES1 261152Z 16005KT 20/18 A3004 RMK A01 T02010177  RH  086%=      5-min Rain = 0
KES1 261153Z 16006KT 20/18 A3004 RMK A01 T02010177  RH  086%=      5-min Rain = 0
KES1 261154Z 16006KT 20/18 A3004 RMK A01 T02010178  RH  086%=      5-min Rain = 0
KES1 261155Z 16005KT 20/18 A3004 RMK A01 T02010178  RH  086%=      5-min Rain = 0
KES1 261156Z 17006KT 20/18 A3004 RMK A01 T02010178  RH  086%=      5-min Rain = 0
KES1 261157Z 16005KT 20/18 A3004 RMK A01 T02020178  RH  086%=      5-min Rain = 0
KES1 261158Z 16005KT 20/18 A3004 RMK A01 T02020178  RH  086%=      5-min Rain = 0
KES1 261159Z 16005KT 20/18 A3004 RMK A01 T02020177  RH  086%=      5-min Rain = 0
KES1 261200Z 16005KT 20/18 A3004 RMK A01 T02020178  RH  086%=      5-min Rain = 0
KES1 261201Z 16005KT 20/18 A3004 RMK A01 T02020178  RH  086%=      5-min Rain = 0
KES1 261202Z 16005KT 20/18 A3004 RMK A01 T02030178  RH  086%=      5-min Rain = 0
KES1 261203Z 16005KT 20/18 A3004 RMK A01 T02030179  RH  086%=      5-min Rain = 0
KES1 261204Z 16004KT 20/18 A3004 RMK A01 T02040179  RH  086%=      5-min Rain = 0
KES1 261205Z 16004KT 20/18 A3004 RMK A01 T02040179  RH  085%=      5-min Rain = 0
KES1 261206Z 16004KT 21/18 A3004 RMK A01 T02050179  RH  085%=      5-min Rain = 0
KES1 261207Z 16004KT 21/18 A3004 RMK A01 T02050179  RH  085%=      5-min Rain = 0
KES1 261208Z 17003KT 21/18 A3004 RMK A01 T02060180  RH  085%=      5-min Rain = 0
KES1 261209Z 18003KT 21/18 A3004 RMK A01 T02060180  RH  085%=      5-min Rain = 0
KES1 261210Z 18003KT 21/18 A3004 RMK A01 T02070180  RH  084%=      5-min Rain = 0
KES1 261211Z 18002KT 21/18 A3004 RMK A01 T02080181  RH  084%=      5-min Rain = 0
KES1 261212Z 17003KT 21/18 A3004 RMK A01 T02090181  RH  084%=      5-min Rain = 0
KES1 261213Z 17003KT 21/18 A3004 RMK A01 T02100182  RH  084%=      5-min Rain = 0
KES1 261214Z 18003KT 21/18 A3004 RMK A01 T02100181  RH  083%=      5-min Rain = 0
KES1 261215Z 18003KT 21/18 A3004 RMK A01 T02110182  RH  083%=      5-min Rain = 0
KES1 261216Z 19003KT 21/18 A3004 RMK A01 T02120183  RH  083%=      5-min Rain = 0
KES1 261217Z 19002KT 21/18 A3004 RMK A01 T02120183  RH  083%=      5-min Rain = 0
KES1 261218Z 20002KT 21/18 A3004 RMK A01 T02130182  RH  083%=      5-min Rain = 0
KES1 261219Z 20002KT 21/18 A3004 RMK A01 T02130181  RH  082%=      5-min Rain = 0
KES1 261220Z 20002KT 21/18 A3004 RMK A01 T02140182  RH  082%=      5-min Rain = 0
KES1 261221Z 21001KT 21/18 A3004 RMK A01 T02140182  RH  082%=      5-min Rain = 0
KES1 261222Z 25001KT 22/18 A3004 RMK A01 T02150183  RH  082%=      5-min Rain = 0
KES1 261223Z 00000KT 22/18 A3005 RMK A01 T02150182  RH  081%=      5-min Rain = 0
KES1 261224Z 00000KT 21/18 A3005 RMK A01 T02140182  RH  082%=      5-min Rain = 0
KES1 261225Z 20001KT 21/18 A3005 RMK A01 T02130181  RH  082%=      5-min Rain = 0
KES1 261226Z 19001KT 21/18 A3005 RMK A01 T02130182  RH  082%=      5-min Rain = 0
KES1 261227Z 18002KT 21/18 A3005 RMK A01 T02130181  RH  082%=      5-min Rain = 0
KES1 261228Z 19002KT 21/18 A3005 RMK A01 T02120181  RH  082%=      5-min Rain = 0
KES1 261229Z 19002KT 21/18 A3005 RMK A01 T02120182  RH  083%=      5-min Rain = 0
KES1 261230Z 18003KT 21/18 A3005 RMK A01 T02130182  RH  083%=      5-min Rain = 0
KES1 261231Z 18003KT 21/18 A3005 RMK A01 T02140182  RH  082%=      5-min Rain = 0
KES1 261232Z 18002KT 21/18 A3005 RMK A01 T02140183  RH  082%=      5-min Rain = 0
KES1 261233Z 17002KT 22/18 A3004 RMK A01 T02150182  RH  082%=      5-min Rain = 0
KES1 261234Z 18003KT 22/18 A3004 RMK A01 T02150182  RH  081%=      5-min Rain = 0
KES1 261235Z 18003KT 22/18 A3004 RMK A01 T02160183  RH  081%=      5-min Rain = 0
KES1 261236Z 17002KT 22/18 A3004 RMK A01 T02170184  RH  081%=      5-min Rain = 0
KES1 261237Z 18003KT 22/18 A3004 RMK A01 T02180183  RH  081%=      5-min Rain = 0
KES1 261238Z 17003KT 22/18 A3004 RMK A01 T02190184  RH  081%=      5-min Rain = 0
KES1 261239Z 17003KT 22/19 A3005 RMK A01 T02200185  RH  081%=      5-min Rain = 0
KES1 261240Z 16003KT 22/19 A3005 RMK A01 T02210186  RH  080%=      5-min Rain = 0
KES1 261241Z 17004KT 22/19 A3005 RMK A01 T02220185  RH  080%=      5-min Rain = 0
KES1 261242Z 18003KT 22/19 A3005 RMK A01 T02230186  RH  079%=      5-min Rain = 0
KES1 261243Z 17003KT 22/19 A3005 RMK A01 T02240187  RH  079%=      5-min Rain = 0
KES1 261244Z 17004KT 23/19 A3005 RMK A01 T02250187  RH  079%=      5-min Rain = 0
KES1 261245Z 19004KT 23/19 A3005 RMK A01 T02260186  RH  078%=      5-min Rain = 0
KES1 261246Z 18003KT 23/19 A3005 RMK A01 T02260186  RH  078%=      5-min Rain = 0
KES1 261247Z 17003KT 23/19 A3005 RMK A01 T02260187  RH  079%=      5-min Rain = 0
KES1 261248Z 17004KT 23/19 A3005 RMK A01 T02260188  RH  079%=      5-min Rain = 0
KES1 261249Z 17004KT 23/19 A3005 RMK A01 T02270187  RH  078%=      5-min Rain = 0
KES1 261250Z 17003KT 23/19 A3005 RMK A01 T02280187  RH  078%=      5-min Rain = 0
KES1 261251Z 17004KT 23/19 A3005 RMK A01 T02300188  RH  077%=      5-min Rain = 0
KES1 261252Z 17004KT 23/19 A3005 RMK A01 T02300187  RH  077%=      5-min Rain = 0
KES1 261253Z 17004KT 23/19 A3005 RMK A01 T02300188  RH  077%=      5-min Rain = 0
KES1 261254Z 17004KT 23/19 A3005 RMK A01 T02310189  RH  077%=      5-min Rain = 0
KES1 261255Z 17004KT 23/19 A3005 RMK A01 T02320189  RH  077%=      5-min Rain = 0
KES1 261256Z 19004KT 23/19 A3005 RMK A01 T02330189  RH  076%=      5-min Rain = 0
KES1 261257Z 17004KT 23/19 A3005 RMK A01 T02330188  RH  076%=      5-min Rain = 0
KES1 261258Z 17003KT 23/19 A3006 RMK A01 T02330189  RH  076%=      5-min Rain = 0
KES1 261259Z 17005KT 23/19 A3006 RMK A01 T02340188  RH  076%=      5-min Rain = 0
KES1 261300Z 18004KT 23/19 A3006 RMK A01 T02340188  RH  075%=      5-min Rain = 0
KES1 261301Z 18004KT 23/19 A3006 RMK A01 T02340189  RH  075%=      5-min Rain = 0
KES1 261302Z 18004KT 24/19 A3006 RMK A01 T02350189  RH  075%=      5-min Rain = 0
KES1 261303Z 18004KT 24/19 A3006 RMK A01 T02350190  RH  076%=      5-min Rain = 0
KES1 261304Z 17004KT 24/19 A3006 RMK A01 T02360189  RH  075%=      5-min Rain = 0
KES1 261305Z 17004KT 24/19 A3006 RMK A01 T02370189  RH  074%=      5-min Rain = 0
KES1 261306Z 18004KT 24/19 A3006 RMK A01 T02380190  RH  075%=      5-min Rain = 0
KES1 261307Z 17004KT 24/19 A3006 RMK A01 T02390190  RH  074%=      5-min Rain = 0
KES1 261308Z 18004KT 24/19 A3006 RMK A01 T02400191  RH  074%=      5-min Rain = 0
KES1 261309Z 17004KT 24/19 A3006 RMK A01 T02400190  RH  073%=      5-min Rain = 0
KES1 261310Z 16005KT 24/19 A3006 RMK A01 T02410189  RH  073%=      5-min Rain = 0
KES1 261311Z 17004KT 24/19 A3006 RMK A01 T02410190  RH  073%=      5-min Rain = 0
KES1 261312Z 18003KT 24/19 A3006 RMK A01 T02420190  RH  073%=      5-min Rain = 0
KES1 261313Z 19004KT 24/19 A3006 RMK A01 T02430190  RH  072%=      5-min Rain = 0
KES1 261314Z 18002KT 24/19 A3006 RMK A01 T02430190  RH  072%=      5-min Rain = 0
KES1 261315Z 18003KT 24/19 A3006 RMK A01 T02430192  RH  073%=      5-min Rain = 0
KES1 261316Z 18004KT 25/19 A3006 RMK A01 T02450193  RH  073%=      5-min Rain = 0
KES1 261317Z 18003KT 25/19 A3006 RMK A01 T02460191  RH  072%=      5-min Rain = 0
KES1 261318Z 18004KT 25/19 A3006 RMK A01 T02460192  RH  072%=      5-min Rain = 0
KES1 261319Z 17004KT 25/19 A3006 RMK A01 T02470190  RH  071%=      5-min Rain = 0
KES1 261320Z 17007KT 25/19 A3006 RMK A01 T02470191  RH  071%=      5-min Rain = 0
KES1 261321Z 17006KT 25/19 A3006 RMK A01 T02480191  RH  070%=      5-min Rain = 0
KES1 261322Z 16007KT 25/19 A3006 RMK A01 T02480190  RH  070%=      5-min Rain = 0
KES1 261323Z 17005KT 25/19 A3006 RMK A01 T02490191  RH  070%=      5-min Rain = 0
KES1 261324Z 18005KT 25/19 A3006 RMK A01 T02500192  RH  070%=      5-min Rain = 0
KES1 261325Z 18006KT 25/19 A3007 RMK A01 T02510191  RH  070%=      5-min Rain = 0
KES1 261326Z 19006KT 25/19 A3007 RMK A01 T02510189  RH  068%=      5-min Rain = 0
KES1 261327Z 18006KT 25/19 A3007 RMK A01 T02510189  RH  069%=      5-min Rain = 0
KES1 261328Z 18007KT 25/19 A3007 RMK A01 T02500188  RH  068%=      5-min Rain = 0
KES1 261329Z 19007KT 25/19 A3007 RMK A01 T02500189  RH  069%=      5-min Rain = 0
KES1 261330Z 19007KT 25/19 A3007 RMK A01 T02510188  RH  068%=      5-min Rain = 0
KES1 261331Z 18006KT 25/19 A3007 RMK A01 T02500187  RH  068%=      5-min Rain = 0
KES1 261332Z 19005KT 25/19 A3007 RMK A01 T02510189  RH  069%=      5-min Rain = 0
KES1 261333Z 20004KT 25/19 A3007 RMK A01 T02520190  RH  069%=      5-min Rain = 0
KES1 261334Z 21005KT 25/19 A3007 RMK A01 T02540188  RH  067%=      5-min Rain = 0
KES1 261335Z 21004KT 25/19 A3007 RMK A01 T02540190  RH  068%=      5-min Rain = 0
KES1 261336Z 20006KT 25/19 A3007 RMK A01 T02540188  RH  067%=      5-min Rain = 0
KES1 261337Z 21004KT 25/19 A3007 RMK A01 T02540189  RH  067%=      5-min Rain = 0
KES1 261338Z 21004KT 25/19 A3007 RMK A01 T02540190  RH  068%=      5-min Rain = 0
KES1 261339Z 21004KT 26/19 A3007 RMK A01 T02560191  RH  067%=      5-min Rain = 0
KES1 261340Z 21006KT 26/19 A3007 RMK A01 T02570191  RH  067%=      5-min Rain = 0
KES1 261341Z 20005KT 26/19 A3007 RMK A01 T02580190  RH  066%=      5-min Rain = 0
KES1 261342Z 20006KT 26/19 A3007 RMK A01 T02580188  RH  065%=      5-min Rain = 0
KES1 261343Z 21005KT 26/19 A3007 RMK A01 T02570189  RH  066%=      5-min Rain = 0
KES1 261344Z 20005KT 26/19 A3007 RMK A01 T02570188  RH  066%=      5-min Rain = 0
KES1 261345Z 20004KT 26/19 A3007 RMK A01 T02560190  RH  067%=      5-min Rain = 0
KES1 261346Z 20004KT 26/19 A3007 RMK A01 T02570189  RH  066%=      5-min Rain = 0
KES1 261347Z 21004KT 26/19 A3007 RMK A01 T02570188  RH  066%=      5-min Rain = 0
KES1 261348Z 21004KT 26/19 A3007 RMK A01 T02570190  RH  066%=      5-min Rain = 0
KES1 261349Z 20004KT 26/19 A3007 RMK A01 T02580190  RH  066%=      5-min Rain = 0
KES1 261350Z 19006KT 26/19 A3007 RMK A01 T02580189  RH  066%=      5-min Rain = 0
KES1 261351Z 18005KT 26/19 A3007 RMK A01 T02590189  RH  065%=      5-min Rain = 0
KES1 261352Z 21005KT 26/19 A3007 RMK A01 T02600190  RH  065%=      5-min Rain = 0
KES1 261353Z 21004KT 26/19 A3007 RMK A01 T02600191  RH  066%=      5-min Rain = 0
KES1 261354Z 21004KT 26/19 A3007 RMK A01 T02600190  RH  065%=      5-min Rain = 0
KES1 261355Z 21005KT 26/19 A3007 RMK A01 T02610191  RH  065%=      5-min Rain = 0
KES1 261356Z 21005KT 26/19 A3007 RMK A01 T02610190  RH  065%=      5-min Rain = 0
KES1 261357Z 20006KT 26/19 A3007 RMK A01 T02610191  RH  065%=      5-min Rain = 0
KES1 261358Z 20007KT 26/19 A3007 RMK A01 T02610189  RH  065%=      5-min Rain = 0
KES1 261359Z 18008KT 26/19 A3007 RMK A01 T02610188  RH  064%=      5-min Rain = 0
KES1 261400Z 18008KT 26/19 A3008 RMK A01 T02600189  RH  065%=      5-min Rain = 0
KES1 261401Z 18006KT 26/19 A3008 RMK A01 T02600189  RH  065%=      5-min Rain = 0
KES1 261402Z 19005KT 26/19 A3008 RMK A01 T02600189  RH  065%=      5-min Rain = 0
KES1 261403Z 18005KT 26/19 A3008 RMK A01 T02610190  RH  065%=      5-min Rain = 0
KES1 261404Z 20003KT 26/19 A3008 RMK A01 T02620190  RH  064%=      5-min Rain = 0
KES1 261405Z 22006KT 26/19 A3008 RMK A01 T02630192  RH  065%=      5-min Rain = 0
KES1 261406Z 22006KT 26/19 A3008 RMK A01 T02640190  RH  064%=      5-min Rain = 0
KES1 261407Z 20006KT 26/19 A3008 RMK A01 T02640191  RH  064%=      5-min Rain = 0
KES1 261408Z 20004KT 26/19 A3008 RMK A01 T02640190  RH  064%=      5-min Rain = 0
KES1 261409Z 19006KT 26/19 A3008 RMK A01 T02640192  RH  064%=      5-min Rain = 0
KES1 261410Z 19006KT 27/19 A3008 RMK A01 T02660192  RH  064%=      5-min Rain = 0
KES1 261411Z 18005KT 27/19 A3008 RMK A01 T02680192  RH  063%=      5-min Rain = 0
KES1 261412Z 20005KT 27/19 A3008 RMK A01 T02690192  RH  063%=      5-min Rain = 0
KES1 261413Z 19005KT 27/19 A3008 RMK A01 T02700191  RH  062%=      5-min Rain = 0
KES1 261414Z 20005KT 27/19 A3008 RMK A01 T02700192  RH  063%=      5-min Rain = 0
KES1 261415Z 19004KT 27/19 A3008 RMK A01 T02700192  RH  063%=      5-min Rain = 0
KES1 261416Z 18004KT 27/19 A3008 RMK A01 T02710192  RH  062%=      5-min Rain = 0
KES1 261417Z 19005KT 27/19 A3008 RMK A01 T02720193  RH  062%=      5-min Rain = 0
KES1 261418Z 19006KT 27/19 A3008 RMK A01 T02740194  RH  062%=      5-min Rain = 0
KES1 261419Z 20006KT 28/19 A3008 RMK A01 T02750192  RH  060%=      5-min Rain = 0
KES1 261420Z 19006KT 28/19 A3008 RMK A01 T02750192  RH  061%=      5-min Rain = 0
KES1 261421Z 18007KT 27/19 A3008 RMK A01 T02740191  RH  061%=      5-min Rain = 0
KES1 261422Z 19008KT 27/19 A3008 RMK A01 T02740191  RH  061%=      5-min Rain = 0
KES1 261423Z 22006KT 27/19 A3008 RMK A01 T02730191  RH  061%=      5-min Rain = 0
KES1 261424Z 22005KT 27/19 A3008 RMK A01 T02730190  RH  061%=      5-min Rain = 0
KES1 261425Z 21007KT 27/19 A3008 RMK A01 T02730191  RH  061%=      5-min Rain = 0
KES1 261426Z 21006KT 27/19 A3008 RMK A01 T02740193  RH  061%=      5-min Rain = 0
KES1 261427Z 18007KT 28/19 A3008 RMK A01 T02750190  RH  060%=      5-min Rain = 0
KES1 261428Z 20007KT 28/19 A3008 RMK A01 T02760190  RH  060%=      5-min Rain = 0
KES1 261429Z 20007KT 28/19 A3008 RMK A01 T02760190  RH  059%=      5-min Rain = 0
KES1 261430Z 21005KT 28/19 A3008 RMK A01 T02760191  RH  060%=      5-min Rain = 0
KES1 261431Z 21005KT 28/19 A3008 RMK A01 T02760192  RH  060%=      5-min Rain = 0
KES1 261432Z 20006KT 28/19 A3008 RMK A01 T02780193  RH  060%=      5-min Rain = 0
KES1 261433Z 20008KT 28/19 A3008 RMK A01 T02790193  RH  059%=      5-min Rain = 0
KES1 261434Z 22006KT 28/19 A3008 RMK A01 T02790191  RH  058%=      5-min Rain = 0
KES1 261435Z 21006KT 28/19 A3008 RMK A01 T02780190  RH  059%=      5-min Rain = 0
KES1 261436Z 19007KT 28/19 A3008 RMK A01 T02790192  RH  059%=      5-min Rain = 0
KES1 261437Z 18006KT 28/19 A3008 RMK A01 T02780190  RH  059%=      5-min Rain = 0
KES1 261438Z 22006KT 28/19 A3008 RMK A01 T02780192  RH  059%=      5-min Rain = 0
KES1 261439Z 20007KT 28/19 A3008 RMK A01 T02800194  RH  059%=      5-min Rain = 0
KES1 261440Z 20008KT 28/19 A3008 RMK A01 T02820191  RH  058%=      5-min Rain = 0
KES1 261441Z 19008KT 28/19 A3008 RMK A01 T02810190  RH  058%=      5-min Rain = 0
KES1 261442Z 18006KT 28/19 A3008 RMK A01 T02790191  RH  058%=      5-min Rain = 0
KES1 261443Z 18007KT 28/19 A3008 RMK A01 T02800190  RH  058%=      5-min Rain = 0
KES1 261444Z 19007KT 28/19 A3008 RMK A01 T02810192  RH  058%=      5-min Rain = 0
KES1 261445Z 19007KT 28/19 A3008 RMK A01 T02820190  RH  057%=      5-min Rain = 0
KES1 261446Z 19007KT 28/19 A3008 RMK A01 T02820191  RH  058%=      5-min Rain = 0
KES1 261447Z 21005KT 28/19 A3008 RMK A01 T02830192  RH  058%=      5-min Rain = 0
KES1 261448Z 20005KT 28/19 A3008 RMK A01 T02840192  RH  057%=      5-min Rain = 0
KES1 261449Z 19006KT 29/19 A3008 RMK A01 T02850192  RH  057%=      5-min Rain = 0
KES1 261450Z 21006KT 29/20 A3008 RMK A01 T02860195  RH  058%=      5-min Rain = 0
KES1 261451Z 20009KT 29/19 A3008 RMK A01 T02870192  RH  056%=      5-min Rain = 0
KES1 261452Z 19008KT 29/19 A3008 RMK A01 T02870192  RH  056%=      5-min Rain = 0
KES1 261453Z 19007KT 29/19 A3008 RMK A01 T02850191  RH  056%=      5-min Rain = 0
KES1 261454Z 21007KT 28/19 A3008 RMK A01 T02840192  RH  057%=      5-min Rain = 0
KES1 261455Z 20007KT 28/19 A3008 RMK A01 T02840192  RH  057%=      5-min Rain = 0
KES1 261456Z 21008KT 29/19 A3008 RMK A01 T02860192  RH  057%=      5-min Rain = 0
KES1 261457Z 23006KT 29/19 A3008 RMK A01 T02860192  RH  057%=      5-min Rain = 0
KES1 261458Z 23008KT 29/19 A3008 RMK A01 T02890190  RH  055%=      5-min Rain = 0
KES1 261459Z 21008KT 29/19 A3008 RMK A01 T02880191  RH  056%=      5-min Rain = 0
KES1 261500Z 23007KT 29/19 A3008 RMK A01 T02870191  RH  056%=      5-min Rain = 0
KES1 261501Z 19007KT 29/19 A3008 RMK A01 T02870193  RH  057%=      5-min Rain = 0
KES1 261502Z 19007KT 29/19 A3008 RMK A01 T02900193  RH  056%=      5-min Rain = 0
KES1 261503Z 20010KT 29/19 A3008 RMK A01 T02910190  RH  055%=      5-min Rain = 0
KES1 261504Z 21008KT 29/19 A3008 RMK A01 T02890188  RH  055%=      5-min Rain = 0
KES1 261505Z 21010KT 29/19 A3008 RMK A01 T02870187  RH  055%=      5-min Rain = 0
KES1 261506Z 21007KT 29/19 A3008 RMK A01 T02870188  RH  055%=      5-min Rain = 0
KES1 261507Z 21009KT 29/19 A3008 RMK A01 T02880189  RH  055%=      5-min Rain = 0
KES1 261508Z 20009KT 29/19 A3008 RMK A01 T02890189  RH  055%=      5-min Rain = 0
KES1 261509Z 21008KT 29/19 A3009 RMK A01 T02890187  RH  054%=      5-min Rain = 0
KES1 261510Z 21006KT 29/19 A3008 RMK A01 T02870189  RH  055%=      5-min Rain = 0
KES1 261511Z 22008KT 29/19 A3008 RMK A01 T02880192  RH  056%=      5-min Rain = 0
KES1 261512Z 21008KT 29/19 A3008 RMK A01 T02910191  RH  055%=      5-min Rain = 0
KES1 261513Z 21006KT 29/19 A3008 RMK A01 T02910188  RH  054%=      5-min Rain = 0
KES1 261514Z 23008KT 29/19 A3008 RMK A01 T02900190  RH  055%=      5-min Rain = 0
KES1 261515Z 21007KT 29/19 A3008 RMK A01 T02910189  RH  054%=      5-min Rain = 0
KES1 261516Z 22009KT 29/19 A3008 RMK A01 T02920190  RH  054%=      5-min Rain = 0
KES1 261517Z 21007KT 29/19 A3008 RMK A01 T02910189  RH  054%=      5-min Rain = 0
KES1 261518Z 20008KT 29/19 A3008 RMK A01 T02920187  RH  053%=      5-min Rain = 0
KES1 261519Z 19009KT 29/19 A3008 RMK A01 T02940188  RH  053%=      5-min Rain = 0
KES1 261520Z 19008KT 30/19 A3009 RMK A01 T02960187  RH  052%=      5-min Rain = 0
KES1 261521Z 19009KT 30/19 A3009 RMK A01 T02950188  RH  053%=      5-min Rain = 0
KES1 261522Z 21009KT 30/19 A3009 RMK A01 T02950187  RH  053%=      5-min Rain = 0
KES1 261523Z 21006KT 30/19 A3009 RMK A01 T02950187  RH  052%=      5-min Rain = 0
KES1 261524Z 19009KT 30/19 A3009 RMK A01 T02950189  RH  053%=      5-min Rain = 0
KES1 261525Z 18009KT 30/19 A3009 RMK A01 T02960187  RH  052%=      5-min Rain = 0
KES1 261526Z 19010KT 30/19 A3009 RMK A01 T02960186  RH  051%=      5-min Rain = 0
KES1 261527Z 19007KT 30/19 A3009 RMK A01 T02960188  RH  052%=      5-min Rain = 0
KES1 261528Z 21005KT 30/19 A3009 RMK A01 T02970193  RH  053%=      5-min Rain = 0
KES1 261529Z 22007KT 30/19 A3009 RMK A01 T03000191  RH  052%=      5-min Rain = 0
KES1 261530Z 23009KT 30/19 A3009 RMK A01 T03010190  RH  052%=      5-min Rain = 0
KES1 261531Z 23006KT 30/19 A3009 RMK A01 T03010189  RH  051%=      5-min Rain = 0
KES1 261532Z 21006KT 30/19 A3009 RMK A01 T03000190  RH  052%=      5-min Rain = 0
KES1 261533Z 20007KT 30/19 A3009 RMK A01 T03010192  RH  052%=      5-min Rain = 0
KES1 261534Z 21008KT 30/19 A3009 RMK A01 T03020191  RH  051%=      5-min Rain = 0
KES1 261535Z 21006KT 30/19 A3009 RMK A01 T03020191  RH  052%=      5-min Rain = 0
KES1 261536Z 22007KT 30/19 A3009 RMK A01 T03020191  RH  052%=      5-min Rain = 0
KES1 261537Z 19008KT 30/19 A3009 RMK A01 T03030192  RH  052%=      5-min Rain = 0
KES1 261538Z 18010KT 30/19 A3009 RMK A01 T03020189  RH  051%=      5-min Rain = 0
KES1 261539Z 17007KT 30/19 A3009 RMK A01 T03020187  RH  050%=      5-min Rain = 0
KES1 261540Z 17009G14KT 30/19 A3009 RMK A01 T03020189  RH  051%=      5-min Rain = 0
KES1 261541Z 19007KT 30/19 A3009 RMK A01 T03040190  RH  051%=      5-min Rain = 0
KES1 261542Z 19007KT 31/19 A3009 RMK A01 T03060188  RH  049%=      5-min Rain = 0
KES1 261543Z 21007KT 31/19 A3009 RMK A01 T03050188  RH  050%=      5-min Rain = 0
KES1 261544Z 20006KT 30/19 A3009 RMK A01 T03030187  RH  050%=      5-min Rain = 0
KES1 261545Z 21007G12KT 30/19 A3008 RMK A01 T03010191  RH  052%=      5-min Rain = 0
KES1 261546Z 20010KT 30/19 A3008 RMK A01 T03040188  RH  050%=      5-min Rain = 0
KES1 261547Z 20008KT 31/19 A3008 RMK A01 T03050187  RH  049%=      5-min Rain = 0
KES1 261548Z 18007KT 30/19 A3008 RMK A01 T03040187  RH  050%=      5-min Rain = 0
KES1 261549Z 19007KT 30/19 A3008 RMK A01 T03040187  RH  050%=      5-min Rain = 0
KES1 261550Z 20005KT 30/19 A3008 RMK A01 T03020190  RH  051%=      5-min Rain = 0
KES1 261551Z 19005KT 31/19 A3008 RMK A01 T03050191  RH  051%=      5-min Rain = 0
KES1 261552Z 17010KT 31/19 A3008 RMK A01 T03070192  RH  050%=      5-min Rain = 0
KES1 261553Z 18007KT 31/19 A3008 RMK A01 T03100192  RH  050%=      5-min Rain = 0
KES1 261554Z 18007KT 31/19 A3008 RMK A01 T03100193  RH  050%=      5-min Rain = 0
KES1 261555Z 17007KT 31/19 A3008 RMK A01 T03090188  RH  048%=      5-min Rain = 0
KES1 261556Z 15007KT 31/19 A3008 RMK A01 T03080189  RH  049%=      5-min Rain = 0
KES1 261557Z 17007KT 31/19 A3008 RMK A01 T03080190  RH  049%=      5-min Rain = 0
KES1 261558Z 17006KT 31/19 A3008 RMK A01 T03080189  RH  049%=      5-min Rain = 0
KES1 261559Z 16009G15KT 31/19 A3008 RMK A01 T03090191  RH  049%=      5-min Rain = 0
KES1 261600Z 16010KT 31/19 A3008 RMK A01 T03120189  RH  048%=      5-min Rain = 0
KES1 261601Z 19008KT 31/19 A3008 RMK A01 T03140188  RH  047%=      5-min Rain = 0
KES1 261602Z 19009G14KT 32/19 A3008 RMK A01 T03150187  RH  047%=      5-min Rain = 0
KES1 261603Z 21011KT 31/19 A3008 RMK A01 T03130185  RH  047%=      5-min Rain = 0
KES1 261604Z 19010KT 31/19 A3008 RMK A01 T03110187  RH  048%=      5-min Rain = 0
KES1 261605Z 19012KT 31/19 A3008 RMK A01 T03100185  RH  047%=      5-min Rain = 0
KES1 261606Z 18007KT 31/19 A3008 RMK A01 T03080185  RH  048%=      5-min Rain = 0
KES1 261607Z 17008KT 31/19 A3008 RMK A01 T03090186  RH  048%=      5-min Rain = 0
KES1 261608Z 16010KT 31/19 A3008 RMK A01 T03110186  RH  047%=      5-min Rain = 0
KES1 261609Z 17008KT 31/19 A3008 RMK A01 T03130187  RH  047%=      5-min Rain = 0
KES1 261610Z 17006KT 31/19 A3008 RMK A01 T03140187  RH  047%=      5-min Rain = 0
KES1 261611Z 19007KT 32/19 A3008 RMK A01 T03160191  RH  047%=      5-min Rain = 0
KES1 261612Z 19008KT 32/19 A3008 RMK A01 T03180191  RH  047%=      5-min Rain = 0
KES1 261613Z 19008KT 32/19 A3008 RMK A01 T03180188  RH  046%=      5-min Rain = 0
KES1 261614Z 18009G14KT 32/19 A3008 RMK A01 T03160187  RH  046%=      5-min Rain = 0
KES1 261615Z 16010KT 31/19 A3008 RMK A01 T03140186  RH  047%=      5-min Rain = 0
KES1 261616Z 16010KT 31/19 A3008 RMK A01 T03130186  RH  047%=      5-min Rain = 0
KES1 261617Z 17008KT 31/19 A3008 RMK A01 T03140185  RH  046%=      5-min Rain = 0
KES1 261618Z 17009G14KT 31/19 A3008 RMK A01 T03140187  RH  047%=      5-min Rain = 0
KES1 261619Z 18013KT 32/18 A3008 RMK A01 T03160183  RH  045%=      5-min Rain = 0
KES1 261620Z 20010KT 32/18 A3008 RMK A01 T03150183  RH  045%=      5-min Rain = 0
KES1 261621Z 19008KT 31/19 A3008 RMK A01 T03140185  RH  046%=      5-min Rain = 0
KES1 261622Z 18011KT 32/19 A3008 RMK A01 T03150185  RH  046%=      5-min Rain = 0
KES1 261623Z 19013KT 32/18 A3008 RMK A01 T03160184  RH  046%=      5-min Rain = 0
KES1 261624Z 19010KT 31/18 A3008 RMK A01 T03130184  RH  046%=      5-min Rain = 0
KES1 261625Z 19006KT 31/19 A3008 RMK A01 T03120185  RH  047%=      5-min Rain = 0
KES1 261626Z 19011KT 32/19 A3008 RMK A01 T03160186  RH  046%=      5-min Rain = 0
KES1 261627Z 20009KT 32/19 A3008 RMK A01 T03150185  RH  046%=      5-min Rain = 0
KES1 261628Z 19009KT 31/19 A3008 RMK A01 T03140185  RH  046%=      5-min Rain = 0
KES1 261629Z 18008KT 31/19 A3008 RMK A01 T03120185  RH  047%=      5-min Rain = 0
KES1 261630Z 19008KT 31/19 A3008 RMK A01 T03140187  RH  047%=      5-min Rain = 0
KES1 261631Z 18012KT 32/18 A3008 RMK A01 T03180184  RH  045%=      5-min Rain = 0
KES1 261632Z 18008KT 32/18 A3008 RMK A01 T03200184  RH  045%=      5-min Rain = 0
KES1 261633Z 18011KT 32/18 A3008 RMK A01 T03230183  RH  044%=      5-min Rain = 0
KES1 261634Z 18010KT 32/18 A3008 RMK A01 T03220182  RH  043%=      5-min Rain = 0
KES1 261635Z 17009KT 32/18 A3008 RMK A01 T03210183  RH  044%=      5-min Rain = 0
KES1 261636Z 17006KT 33/19 A3008 RMK A01 T03250186  RH  044%=      5-min Rain = 0
KES1 261637Z 17013KT 33/18 A3008 RMK A01 T03280181  RH  042%=      5-min Rain = 0
KES1 261638Z 20008KT 33/18 A3008 RMK A01 T03250179  RH  042%=      5-min Rain = 0
KES1 261639Z 20007KT 32/18 A3008 RMK A01 T03230181  RH  043%=      5-min Rain = 0
KES1 261640Z 21008KT 32/18 A3008 RMK A01 T03240182  RH  043%=      5-min Rain = 0
KES1 261641Z 19010KT 32/18 A3008 RMK A01 T03240182  RH  043%=      5-min Rain = 0
KES1 261642Z 20010KT 32/19 A3008 RMK A01 T03240185  RH  044%=      5-min Rain = 0
KES1 261643Z 19010KT 32/19 A3008 RMK A01 T03240185  RH  044%=      5-min Rain = 0
KES1 261644Z 19011KT 32/19 A3008 RMK A01 T03240188  RH  044%=      5-min Rain = 0
KES1 261645Z 19010KT 32/18 A3008 RMK A01 T03230183  RH  044%=      5-min Rain = 0
KES1 261646Z 19013KT 32/18 A3008 RMK A01 T03220183  RH  044%=      5-min Rain = 0
KES1 261647Z 19010KT 32/18 A3008 RMK A01 T03220179  RH  043%=      5-min Rain = 0
KES1 261648Z 19010G16KT 32/18 A3008 RMK A01 T03200183  RH  044%=      5-min Rain = 0
KES1 261649Z 19011G16KT 32/19 A3008 RMK A01 T03230187  RH  045%=      5-min Rain = 0
KES1 261650Z 19012KT 32/18 A3008 RMK A01 T03240184  RH  043%=      5-min Rain = 0
KES1 261651Z 20012KT 32/19 A3008 RMK A01 T03220185  RH  044%=      5-min Rain = 0
KES1 261652Z 19010KT 32/19 A3008 RMK A01 T03210185  RH  044%=      5-min Rain = 0
KES1 261653Z 19011KT 32/18 A3008 RMK A01 T03200182  RH  044%=      5-min Rain = 0
KES1 261654Z 20010KT 32/18 A3008 RMK A01 T03180180  RH  044%=      5-min Rain = 0
KES1 261655Z 18008KT 32/18 A3008 RMK A01 T03180181  RH  044%=      5-min Rain = 0
KES1 261656Z 18012KT 32/18 A3008 RMK A01 T03210183  RH  044%=      5-min Rain = 0
KES1 261657Z 19010KT 32/18 A3008 RMK A01 T03220182  RH  043%=      5-min Rain = 0
KES1 261658Z 18012KT 32/18 A3008 RMK A01 T03230183  RH  044%=      5-min Rain = 0
KES1 261659Z 18012KT 32/18 A3008 RMK A01 T03240184  RH  043%=      5-min Rain = 0
KES1 261700Z 18009KT 32/18 A3008 RMK A01 T03240183  RH  043%=      5-min Rain = 0
KES1 261701Z 18014KT 32/18 A3008 RMK A01 T03230181  RH  043%=      5-min Rain = 0
KES1 261702Z 17012KT 32/18 A3008 RMK A01 T03220183  RH  044%=      5-min Rain = 0
KES1 261703Z 17009KT 32/18 A3008 RMK A01 T03220181  RH  043%=      5-min Rain = 0
KES1 261704Z 18010KT 32/18 A3008 RMK A01 T03230182  RH  043%=      5-min Rain = 0
KES1 261705Z 20011KT 33/18 A3008 RMK A01 T03250182  RH  043%=      5-min Rain = 0
KES1 261706Z 19011G16KT 33/18 A3008 RMK A01 T03270182  RH  042%=      5-min Rain = 0
KES1 261707Z 16009KT 33/19 A3008 RMK A01 T03280187  RH  043%=      5-min Rain = 0
KES1 261708Z 16009KT 33/19 A3008 RMK A01 T03310185  RH  042%=      5-min Rain = 0
KES1 261709Z 19009KT 33/18 A3008 RMK A01 T03320184  RH  041%=      5-min Rain = 0
KES1 261710Z 19012KT 34/18 A3008 RMK A01 T03350181  RH  040%=      5-min Rain = 0
KES1 261711Z 18012KT 33/18 A3008 RMK A01 T03330179  RH  040%=      5-min Rain = 0
KES1 261712Z 19010KT 33/18 A3008 RMK A01 T03290181  RH  041%=      5-min Rain = 0
KES1 261713Z 20009KT 33/18 A3008 RMK A01 T03300183  RH  042%=      5-min Rain = 0
KES1 261714Z 20010KT 33/18 A3008 RMK A01 T03310180  RH  041%=      5-min Rain = 0
KES1 261715Z 19010G16KT 33/18 A3008 RMK A01 T03290179  RH  041%=      5-min Rain = 0
KES1 261716Z 20008G13KT 33/18 A3008 RMK A01 T03300181  RH  041%=      5-min Rain = 0
KES1 261717Z 20011G16KT 33/18 A3008 RMK A01 T03320178  RH  040%=      5-min Rain = 0
KES1 261718Z 19014KT 33/18 A3008 RMK A01 T03300176  RH  040%=      5-min Rain = 0
KES1 261719Z 18013G18KT 33/18 A3008 RMK A01 T03280177  RH  041%=      5-min Rain = 0
KES1 261720Z 17012KT 33/18 A3008 RMK A01 T03260178  RH  041%=      5-min Rain = 0
KES1 261721Z 17015KT 33/18 A3008 RMK A01 T03270182  RH  042%=      5-min Rain = 0
KES1 261722Z 18013G19KT 33/18 A3008 RMK A01 T03280182  RH  042%=      5-min Rain = 0
KES1 261723Z 18010KT 33/18 A3008 RMK A01 T03290182  RH  042%=      5-min Rain = 0
KES1 261724Z 18010KT 33/18 A3008 RMK A01 T03300182  RH  042%=      5-min Rain = 0
KES1 261725Z 18010KT 33/18 A3008 RMK A01 T03290183  RH  042%=      5-min Rain = 0
KES1 261726Z 18007KT 33/18 A3008 RMK A01 T03290184  RH  042%=      5-min Rain = 0
KES1 261727Z 16009KT 33/18 A3008 RMK A01 T03300184  RH  042%=      5-min Rain = 0
KES1 261728Z 15012G18KT 33/19 A3008 RMK A01 T03320186  RH  042%=      5-min Rain = 0
KES1 261729Z 16017G23KT 33/18 A3007 RMK A01 T03340182  RH  040%=      5-min Rain = 0
KES1 261730Z 17015KT 33/18 A3007 RMK A01 T03320180  RH  040%=      5-min Rain = 0
KES1 261731Z 16015KT 33/18 A3008 RMK A01 T03300182  RH  042%=      5-min Rain = 0
KES1 261732Z 17010KT 33/18 A3008 RMK A01 T03300184  RH  042%=      5-min Rain = 0
KES1 261733Z 18010KT 33/18 A3007 RMK A01 T03310180  RH  041%=      5-min Rain = 0
KES1 261734Z 17011G16KT 33/18 A3007 RMK A01 T03310181  RH  041%=      5-min Rain = 0
KES1 261735Z 16011G16KT 33/18 A3008 RMK A01 T03330181  RH  040%=      5-min Rain = 0
KES1 261736Z 15016G21KT 34/18 A3007 RMK A01 T03350175  RH  039%=      5-min Rain = 0
KES1 261737Z 16016KT 33/18 A3008 RMK A01 T03320175  RH  039%=      5-min Rain = 0
KES1 261738Z 15009KT 33/18 A3008 RMK A01 T03300177  RH  040%=      5-min Rain = 0
KES1 261739Z 18011KT 33/18 A3008 RMK A01 T03300179  RH  041%=      5-min Rain = 0
KES1 261740Z 17009KT 33/18 A3008 RMK A01 T03340180  RH  040%=      5-min Rain = 0
KES1 261741Z 16013KT 34/18 A3008 RMK A01 T03380177  RH  039%=      5-min Rain = 0
KES1 261742Z 15013KT 34/17 A3008 RMK A01 T03360174  RH  038%=      5-min Rain = 0
KES1 261743Z 16009KT 33/17 A3008 RMK A01 T03330174  RH  039%=      5-min Rain = 0
KES1 261744Z 17008G13KT 33/17 A3008 RMK A01 T03310174  RH  039%=      5-min Rain = 0
KES1 261745Z 17014KT 33/18 A3008 RMK A01 T03310176  RH  040%=      5-min Rain = 0
KES1 261746Z 17009G15KT 33/18 A3008 RMK A01 T03320179  RH  040%=      5-min Rain = 0
KES1 261747Z 16012G17KT 33/18 A3008 RMK A01 T03340178  RH  039%=      5-min Rain = 0
KES1 261748Z 17011KT 33/18 A3008 RMK A01 T03340179  RH  040%=      5-min Rain = 0
KES1 261749Z 17010KT 34/18 A3008 RMK A01 T03350179  RH  040%=      5-min Rain = 0
KES1 261750Z 18010KT 34/18 A3008 RMK A01 T03350179  RH  040%=      5-min Rain = 0
KES1 261751Z 18013KT 34/18 A3008 RMK A01 T03350178  RH  040%=      5-min Rain = 0
KES1 261752Z 19012KT 33/18 A3008 RMK A01 T03320179  RH  040%=      5-min Rain = 0
KES1 261753Z 19013KT 33/18 A3007 RMK A01 T03310182  RH  041%=      5-min Rain = 0
KES1 261754Z 18008KT 33/18 A3007 RMK A01 T03300182  RH  041%=      5-min Rain = 0
KES1 261755Z 17009KT 33/18 A3007 RMK A01 T03310183  RH  042%=      5-min Rain = 0
KES1 261756Z 19008KT 33/18 A3007 RMK A01 T03310183  RH  041%=      5-min Rain = 0
KES1 261757Z 21011KT 33/18 A3007 RMK A01 T03330179  RH  040%=      5-min Rain = 0
KES1 261758Z 19010G16KT 33/18 A3007 RMK A01 T03340179  RH  040%=      5-min Rain = 0
KES1 261759Z 19012G17KT 33/18 A3007 RMK A01 T03340180  RH  040%=      5-min Rain = 0
KES1 261800Z 17013KT 34/18 A3007 RMK A01 T03350180  RH  040%=      5-min Rain = 0
KES1 261801Z 17012KT 34/18 A3007 RMK A01 T03360180  RH  040%=      5-min Rain = 0
KES1 261802Z 17013KT 34/18 A3007 RMK A01 T03350178  RH  039%=      5-min Rain = 0
KES1 261803Z 17010KT 33/18 A3008 RMK A01 T03340179  RH  040%=      5-min Rain = 0
KES1 261804Z 17007KT 33/18 A3007 RMK A01 T03340182  RH  041%=      5-min Rain = 0
KES1 261805Z 16010KT 34/18 A3007 RMK A01 T03350182  RH  040%=      5-min Rain = 0
KES1 261806Z 14009G14KT 34/18 A3007 RMK A01 T03350183  RH  041%=      5-min Rain = 0
KES1 261807Z 15008KT 34/19 A3007 RMK A01 T03360186  RH  041%=      5-min Rain = 0
KES1 261808Z 15011G17KT 34/18 A3007 RMK A01 T03390184  RH  040%=      5-min Rain = 0
KES1 261809Z 15014KT 34/18 A3007 RMK A01 T03400181  RH  039%=      5-min Rain = 0
KES1 261810Z 17012KT 34/18 A3007 RMK A01 T03390181  RH  039%=      5-min Rain = 0
KES1 261811Z 18012KT 34/18 A3007 RMK A01 T03380182  RH  040%=      5-min Rain = 0
KES1 261812Z 18016KT 34/18 A3007 RMK A01 T03400178  RH  038%=      5-min Rain = 0
KES1 261813Z 19014KT 34/17 A3007 RMK A01 T03380174  RH  038%=      5-min Rain = 0
KES1 261814Z 16012KT 33/18 A3007 RMK A01 T03340176  RH  039%=      5-min Rain = 0
KES1 261815Z 15011G16KT 33/18 A3007 RMK A01 T03330177  RH  040%=      5-min Rain = 0
KES1 261816Z 17013KT 33/18 A3007 RMK A01 T03340181  RH  040%=      5-min Rain = 0
KES1 261817Z 19012G17KT 34/18 A3007 RMK A01 T03360182  RH  040%=      5-min Rain = 0
KES1 261818Z 19014KT 33/18 A3007 RMK A01 T03340183  RH  041%=      5-min Rain = 0
KES1 261819Z 15010KT 33/19 A3007 RMK A01 T03330186  RH  042%=      5-min Rain = 0
KES1 261820Z 15013KT 34/18 A3007 RMK A01 T03360183  RH  041%=      5-min Rain = 0
KES1 261821Z 14011KT 34/18 A3007 RMK A01 T03370184  RH  040%=      5-min Rain = 0
KES1 261822Z 15013G20KT 34/19 A3007 RMK A01 T03400185  RH  040%=      5-min Rain = 0
KES1 261823Z 14014G19KT 34/19 A3007 RMK A01 T03420185  RH  039%=      5-min Rain = 0
KES1 261824Z 15014KT 34/18 A3007 RMK A01 T03400184  RH  040%=      5-min Rain = 0
KES1 261825Z 18012KT 34/18 A3007 RMK A01 T03370184  RH  040%=      5-min Rain = 0
KES1 261826Z 19010G15KT 34/18 A3007 RMK A01 T03360183  RH  040%=      5-min Rain = 0
KES1 261827Z 19008KT 34/18 A3007 RMK A01 T03360182  RH  040%=      5-min Rain = 0
KES1 261828Z 17007KT 34/18 A3007 RMK A01 T03390184  RH  040%=      5-min Rain = 0
KES1 261829Z 17011G16KT 34/18 A3007 RMK A01 T03410183  RH  039%=      5-min Rain = 0
KES1 261830Z 17010KT 34/18 A3007 RMK A01 T03410183  RH  039%=      5-min Rain = 0
KES1 261831Z 15010KT 34/18 A3007 RMK A01 T03410184  RH  040%=      5-min Rain = 0
KES1 261832Z 17010KT 34/18 A3007 RMK A01 T03410182  RH  039%=      5-min Rain = 0
KES1 261833Z 19010KT 34/18 A3007 RMK A01 T03400182  RH  039%=      5-min Rain = 0
KES1 261834Z 19012G17KT 34/18 A3007 RMK A01 T03410179  RH  038%=      5-min Rain = 0
KES1 261835Z 19014KT 34/17 A3007 RMK A01 T03410172  RH  037%=      5-min Rain = 0
KES1 261836Z 19011KT 34/18 A3007 RMK A01 T03390176  RH  038%=      5-min Rain = 0
KES1 261837Z 17012KT 34/18 A3006 RMK A01 T03390177  RH  038%=      5-min Rain = 0
KES1 261838Z 18011G16KT 34/18 A3007 RMK A01 T03400176  RH  038%=      5-min Rain = 0
KES1 261839Z 18011KT 34/18 A3007 RMK A01 T03420175  RH  037%=      5-min Rain = 0
KES1 261840Z 16008KT 34/18 A3006 RMK A01 T03400178  RH  038%=      5-min Rain = 0
KES1 261841Z 18004KT 34/18 A3006 RMK A01 T03400179  RH  039%=      5-min Rain = 0
KES1 261842Z 16009G14KT 34/18 A3006 RMK A01 T03410181  RH  039%=      5-min Rain = 0
KES1 261843Z 15013G18KT 34/18 A3006 RMK A01 T03440178  RH  037%=      5-min Rain = 0
KES1 261844Z 15015KT 34/18 A3006 RMK A01 T03430179  RH  038%=      5-min Rain = 0
KES1 261845Z 15013KT 34/18 A3006 RMK A01 T03400180  RH  039%=      5-min Rain = 0
KES1 261846Z 15014KT 34/18 A3006 RMK A01 T03390182  RH  039%=      5-min Rain = 0
KES1 261847Z 15008KT 34/18 A3006 RMK A01 T03400180  RH  039%=      5-min Rain = 0
KES1 261848Z 16007KT 34/18 A3006 RMK A01 T03400181  RH  039%=      5-min Rain = 0
KES1 261849Z 16010KT 34/18 A3006 RMK A01 T03380182  RH  040%=      5-min Rain = 0
KES1 261850Z 17011KT 34/19 A3006 RMK A01 T03400185  RH  040%=      5-min Rain = 0
KES1 261851Z 15012KT 34/18 A3006 RMK A01 T03430181  RH  038%=      5-min Rain = 0
KES1 261852Z 15008KT 34/18 A3006 RMK A01 T03410178  RH  038%=      5-min Rain = 0
KES1 261853Z 17005KT 34/18 A3006 RMK A01 T03380175  RH  038%=      5-min Rain = 0
KES1 261854Z 20013KT 34/18 A3006 RMK A01 T03370176  RH  038%=      5-min Rain = 0
KES1 261855Z 21012KT 34/18 A3006 RMK A01 T03390175  RH  038%=      5-min Rain = 0
KES1 261856Z 20010KT 34/18 A3006 RMK A01 T03400175  RH  038%=      5-min Rain = 0
KES1 261857Z 20012KT 34/18 A3006 RMK A01 T03400176  RH  038%=      5-min Rain = 0
KES1 261858Z 19012KT 34/18 A3006 RMK A01 T03390178  RH  039%=      5-min Rain = 0
KES1 261859Z 18010KT 34/18 A3006 RMK A01 T03400177  RH  038%=      5-min Rain = 0
KES1 261900Z 17008KT 34/18 A3006 RMK A01 T03400176  RH  038%=      5-min Rain = 0
KES1 261901Z 17007G12KT 34/18 A3006 RMK A01 T03400176  RH  038%=      5-min Rain = 0
KES1 261902Z 16012KT 34/18 A3006 RMK A01 T03410179  RH  038%=      5-min Rain = 0
KES1 261903Z 16016KT 34/18 A3006 RMK A01 T03440180  RH  038%=      5-min Rain = 0
KES1 261904Z 18011G16KT 35/18 A3006 RMK A01 T03450179  RH  038%=      5-min Rain = 0
KES1 261905Z 17010KT 35/18 A3006 RMK A01 T03450178  RH  037%=      5-min Rain = 0
KES1 261906Z 17011KT 34/17 A3006 RMK A01 T03420173  RH  037%=      5-min Rain = 0
KES1 261907Z 15011KT 34/17 A3006 RMK A01 T03380173  RH  038%=      5-min Rain = 0
KES1 261908Z 16013KT 34/18 A3006 RMK A01 T03420176  RH  038%=      5-min Rain = 0
KES1 261909Z 16014KT 35/17 A3006 RMK A01 T03460173  RH  036%=      5-min Rain = 0
KES1 261910Z 16012G17KT 35/17 A3006 RMK A01 T03460172  RH  036%=      5-min Rain = 0
KES1 261911Z 15010KT 35/17 A3006 RMK A01 T03450174  RH  036%=      5-min Rain = 0
KES1 261912Z 15010KT 35/18 A3006 RMK A01 T03460177  RH  037%=      5-min Rain = 0
KES1 261913Z 18008G14KT 35/18 A3006 RMK A01 T03490177  RH  036%=      5-min Rain = 0
KES1 261914Z 21013KT 35/18 A3006 RMK A01 T03490176  RH  036%=      5-min Rain = 0
KES1 261915Z 21012KT 35/17 A3006 RMK A01 T03460174  RH  036%=      5-min Rain = 0
KES1 261916Z 20009KT 34/17 A3006 RMK A01 T03420174  RH  037%=      5-min Rain = 0
KES1 261917Z 18009G15KT 34/18 A3006 RMK A01 T03430178  RH  038%=      5-min Rain = 0
KES1 261918Z 16013G18KT 35/17 A3006 RMK A01 T03470173  RH  036%=      5-min Rain = 0
KES1 261919Z 15014KT 35/17 A3006 RMK A01 T03470173  RH  036%=      5-min Rain = 0
KES1 261920Z 14013G18KT 35/17 A3006 RMK A01 T03470173  RH  036%=      5-min Rain = 0
KES1 261921Z 15013KT 35/17 A3006 RMK A01 T03470171  RH  035%=      5-min Rain = 0
KES1 261922Z 14014KT 35/17 A3006 RMK A01 T03470173  RH  036%=      5-min Rain = 0
KES1 261923Z 17009G14KT 35/18 A3006 RMK A01 T03510177  RH  036%=      5-min Rain = 0
KES1 261924Z 18010G16KT 35/18 A3006 RMK A01 T03540179  RH  036%=      5-min Rain = 0
KES1 261925Z 16013G18KT 36/18 A3006 RMK A01 T03550175  RH  035%=      5-min Rain = 0
KES1 261926Z 16011KT 35/17 A3006 RMK A01 T03540174  RH  035%=      5-min Rain = 0
KES1 261927Z 16010KT 35/17 A3006 RMK A01 T03490174  RH  035%=      5-min Rain = 0
KES1 261928Z 18012KT 35/18 A3006 RMK A01 T03460175  RH  036%=      5-min Rain = 0
KES1 261929Z 17013KT 34/18 A3006 RMK A01 T03440178  RH  037%=      5-min Rain = 0
KES1 261930Z 15011KT 34/18 A3006 RMK A01 T03440179  RH  038%=      5-min Rain = 0
KES1 261931Z 15010KT 35/18 A3006 RMK A01 T03450178  RH  037%=      5-min Rain = 0
KES1 261932Z 17010KT 34/18 A3006 RMK A01 T03440179  RH  038%=      5-min Rain = 0
KES1 261933Z 16013KT 35/18 A3005 RMK A01 T03460180  RH  037%=      5-min Rain = 0
KES1 261934Z 16012KT 35/18 A3005 RMK A01 T03470177  RH  037%=      5-min Rain = 0
KES1 261935Z 16008KT 35/18 A3005 RMK A01 T03470179  RH  037%=      5-min Rain = 0
KES1 261936Z 18011KT 35/18 A3005 RMK A01 T03490176  RH  036%=      5-min Rain = 0
KES1 261937Z 18012G17KT 35/17 A3005 RMK A01 T03490172  RH  035%=      5-min Rain = 0
KES1 261938Z 17011G20KT 35/17 A3005 RMK A01 T03500174  RH  035%=      5-min Rain = 0
KES1 261939Z 17015G20KT 35/17 A3005 RMK A01 T03510172  RH  035%=      5-min Rain = 0
KES1 261940Z 16014KT 35/17 A3005 RMK A01 T03480172  RH  035%=      5-min Rain = 0
KES1 261941Z 17013G19KT 35/18 A3006 RMK A01 T03470176  RH  036%=      5-min Rain = 0
KES1 261942Z 18013G18KT 35/17 A3005 RMK A01 T03480172  RH  035%=      5-min Rain = 0
KES1 261943Z 16012KT 35/17 A3006 RMK A01 T03460172  RH  036%=      5-min Rain = 0
KES1 261944Z 16013KT 35/17 A3006 RMK A01 T03460173  RH  036%=      5-min Rain = 0
KES1 261945Z 17013KT 35/17 A3006 RMK A01 T03450174  RH  036%=      5-min Rain = 0
KES1 261946Z 17014G19KT 35/17 A3006 RMK A01 T03470173  RH  036%=      5-min Rain = 0
KES1 261947Z 19009KT 35/17 A3006 RMK A01 T03480173  RH  036%=      5-min Rain = 0
KES1 261948Z 18011KT 35/17 A3006 RMK A01 T03490170  RH  035%=      5-min Rain = 0
KES1 261949Z 19009KT 35/17 A3005 RMK A01 T03490169  RH  034%=      5-min Rain = 0
KES1 261950Z 19009KT 35/17 A3005 RMK A01 T03480172  RH  035%=      5-min Rain = 0
KES1 261951Z 17007KT 35/17 A3005 RMK A01 T03470173  RH  036%=      5-min Rain = 0
KES1 261952Z 19012G17KT 35/18 A3005 RMK A01 T03480176  RH  036%=      5-min Rain = 0
KES1 261953Z 19010G15KT 35/18 A3005 RMK A01 T03490176  RH  036%=      5-min Rain = 0
KES1 261954Z 18011G16KT 35/18 A3005 RMK A01 T03520175  RH  035%=      5-min Rain = 0
KES1 261955Z 17015G20KT 36/18 A3005 RMK A01 T03550175  RH  035%=      5-min Rain = 0
KES1 261956Z 17013G18KT 35/18 A3005 RMK A01 T03530176  RH  035%=      5-min Rain = 0
KES1 261957Z 18008KT 35/17 A3005 RMK A01 T03510172  RH  035%=      5-min Rain = 0
KES1 261958Z 18009KT 35/17 A3005 RMK A01 T03520174  RH  035%=      5-min Rain = 0
KES1 261959Z 18010KT 35/17 A3005 RMK A01 T03530174  RH  035%=      5-min Rain = 0
KES1 262000Z 16011KT 36/17 A3005 RMK A01 T03560173  RH  034%=      5-min Rain = 0
KES1 262001Z 15008KT 36/17 A3005 RMK A01 T03550173  RH  034%=      5-min Rain = 0
KES1 262002Z 18011KT 35/18 A3005 RMK A01 T03540175  RH  035%=      5-min Rain = 0
KES1 262003Z 20011G16KT 35/18 A3005 RMK A01 T03540178  RH  035%=      5-min Rain = 0
KES1 262004Z 20011G16KT 35/18 A3005 RMK A01 T03540176  RH  035%=      5-min Rain = 0
KES1 262005Z 21010KT 35/18 A3005 RMK A01 T03520177  RH  036%=      5-min Rain = 0
KES1 262006Z 20013KT 35/18 A3005 RMK A01 T03520176  RH  035%=      5-min Rain = 0
KES1 262007Z 15014KT 35/18 A3005 RMK A01 T03510175  RH  035%=      5-min Rain = 0
KES1 262008Z 16012KT 35/17 A3005 RMK A01 T03510170  RH  034%=      5-min Rain = 0
KES1 262009Z 16013KT 35/17 A3005 RMK A01 T03510174  RH  035%=      5-min Rain = 0
KES1 262010Z 16015G20KT 35/17 A3005 RMK A01 T03530171  RH  034%=      5-min Rain = 0
KES1 262011Z 17016KT 35/17 A3005 RMK A01 T03500171  RH  035%=      5-min Rain = 0
KES1 262012Z 16014KT 35/17 A3005 RMK A01 T03480171  RH  035%=      5-min Rain = 0
KES1 262013Z 16014KT 35/17 A3005 RMK A01 T03480172  RH  035%=      5-min Rain = 0
KES1 262014Z 17012G17KT 35/17 A3005 RMK A01 T03490170  RH  035%=      5-min Rain = 0
KES1 262015Z 17011G16KT 35/17 A3005 RMK A01 T03490166  RH  034%=      5-min Rain = 0
KES1 262016Z 16012G18KT 35/17 A3005 RMK A01 T03470167  RH  034%=      5-min Rain = 0
KES1 262017Z 15016KT 35/17 A3005 RMK A01 T03500167  RH  034%=      5-min Rain = 0
KES1 262018Z 16017G23KT 35/17 A3005 RMK A01 T03510168  RH  034%=      5-min Rain = 0
KES1 262019Z 17011KT 35/17 A3005 RMK A01 T03480173  RH  035%=      5-min Rain = 0
KES1 262020Z 16012KT 35/18 A3005 RMK A01 T03490175  RH  036%=      5-min Rain = 0
KES1 262021Z 16011KT 35/18 A3005 RMK A01 T03490176  RH  036%=      5-min Rain = 0
KES1 262022Z 16018G23KT 35/17 A3005 RMK A01 T03480172  RH  035%=      5-min Rain = 0
KES1 262023Z 16014G21KT 35/17 A3005 RMK A01 T03470171  RH  035%=      5-min Rain = 0
KES1 262024Z 15014KT 35/17 A3005 RMK A01 T03470171  RH  035%=      5-min Rain = 0
KES1 262025Z 15013G19KT 35/17 A3005 RMK A01 T03490170  RH  035%=      5-min Rain = 0
KES1 262026Z 15010KT 35/17 A3005 RMK A01 T03470170  RH  035%=      5-min Rain = 0
KES1 262027Z 15013KT 35/17 A3004 RMK A01 T03480172  RH  035%=      5-min Rain = 0
KES1 262028Z 15018KT 35/17 A3004 RMK A01 T03500173  RH  035%=      5-min Rain = 0
KES1 262029Z 15015KT 35/17 A3004 RMK A01 T03490173  RH  035%=      5-min Rain = 0
KES1 262030Z 15014KT 35/17 A3004 RMK A01 T03460174  RH  036%=      5-min Rain = 0
KES1 262031Z 18013KT 35/18 A3004 RMK A01 T03470175  RH  036%=      5-min Rain = 0
KES1 262032Z 17013KT 35/17 A3004 RMK A01 T03490173  RH  035%=      5-min Rain = 0
KES1 262033Z 17011KT 35/17 A3004 RMK A01 T03510165  RH  033%=      5-min Rain = 0
KES1 262034Z 16010KT 35/17 A3004 RMK A01 T03520167  RH  033%=      5-min Rain = 0
KES1 262035Z 17010G16KT 35/17 A3004 RMK A01 T03530168  RH  034%=      5-min Rain = 0
KES1 262036Z 18014KT 36/17 A3004 RMK A01 T03550174  RH  034%=      5-min Rain = 0
KES1 262037Z 19011KT 36/17 A3004 RMK A01 T03550173  RH  034%=      5-min Rain = 0
KES1 262038Z 18013G18KT 35/17 A3004 RMK A01 T03520173  RH  035%=      5-min Rain = 0
KES1 262039Z 18011KT 35/17 A3004 RMK A01 T03510168  RH  034%=      5-min Rain = 0
KES1 262040Z 19011G16KT 35/17 A3004 RMK A01 T03510165  RH  033%=      5-min Rain = 0
KES1 262041Z 17009KT 35/16 A3004 RMK A01 T03530163  RH  032%=      5-min Rain = 0
KES1 262042Z 18008G13KT 36/17 A3004 RMK A01 T03560167  RH  033%=      5-min Rain = 0
KES1 262043Z 17012KT 36/17 A3004 RMK A01 T03610174  RH  033%=      5-min Rain = 0
KES1 262044Z 17013KT 36/18 A3004 RMK A01 T03610176  RH  034%=      5-min Rain = 0
KES1 262045Z 16009G15KT 36/18 A3004 RMK A01 T03570176  RH  034%=      5-min Rain = 0
KES1 262046Z 17012G17KT 36/18 A3004 RMK A01 T03560175  RH  034%=      5-min Rain = 0
KES1 262047Z 17015KT 36/18 A3004 RMK A01 T03560175  RH  035%=      5-min Rain = 0
KES1 262048Z 14016KT 35/18 A3004 RMK A01 T03520176  RH  035%=      5-min Rain = 0
KES1 262049Z 16015G20KT 35/18 A3004 RMK A01 T03500175  RH  035%=      5-min Rain = 0
KES1 262050Z 17010G15KT 35/17 A3004 RMK A01 T03480174  RH  036%=      5-min Rain = 0
KES1 262051Z 19011G16KT 35/17 A3004 RMK A01 T03490173  RH  035%=      5-min Rain = 0
KES1 262052Z 16013KT 35/17 A3004 RMK A01 T03470173  RH  036%=      5-min Rain = 0
KES1 262053Z 15013KT 35/17 A3004 RMK A01 T03490171  RH  035%=      5-min Rain = 0
KES1 262054Z 16011G16KT 35/17 A3004 RMK A01 T03500173  RH  035%=      5-min Rain = 0
KES1 262055Z 16011KT 35/18 A3004 RMK A01 T03500178  RH  036%=      5-min Rain = 0
KES1 262056Z 17010KT 35/18 A3004 RMK A01 T03500180  RH  037%=      5-min Rain = 0
KES1 262057Z 18010KT 35/18 A3004 RMK A01 T03510177  RH  036%=      5-min Rain = 0
KES1 262058Z 18010KT 35/18 A3004 RMK A01 T03530175  RH  035%=      5-min Rain = 0
KES1 262059Z 18010KT 35/18 A3004 RMK A01 T03530175  RH  035%=      5-min Rain = 0
KES1 262100Z 16013G18KT 35/17 A3004 RMK A01 T03540173  RH  034%=      5-min Rain = 0
KES1 262101Z 16013KT 36/17 A3004 RMK A01 T03550169  RH  033%=      5-min Rain = 0
KES1 262102Z 16010KT 36/17 A3004 RMK A01 T03560174  RH  034%=      5-min Rain = 0
KES1 262103Z 17012KT 36/18 A3004 RMK A01 T03580176  RH  034%=      5-min Rain = 0
KES1 262104Z 16012G17KT 36/18 A3004 RMK A01 T03560175  RH  034%=      5-min Rain = 0
KES1 262105Z 17009KT 35/18 A3004 RMK A01 T03510176  RH  035%=      5-min Rain = 0
KES1 262106Z 17010G15KT 35/18 A3004 RMK A01 T03510175  RH  035%=      5-min Rain = 0
KES1 262107Z 17011KT 35/18 A3004 RMK A01 T03520175  RH  035%=      5-min Rain = 0
KES1 262108Z 15009KT 35/18 A3004 RMK A01 T03520175  RH  035%=      5-min Rain = 0
KES1 262109Z 15015KT 35/17 A3004 RMK A01 T03520173  RH  035%=      5-min Rain = 0
KES1 262110Z 14013KT 35/17 A3003 RMK A01 T03510171  RH  034%=      5-min Rain = 0
KES1 262111Z 16012KT 35/17 A3003 RMK A01 T03490172  RH  035%=      5-min Rain = 0
KES1 262112Z 17012G17KT 35/17 A3003 RMK A01 T03500172  RH  035%=      5-min Rain = 0
KES1 262113Z 18015KT 35/17 A3003 RMK A01 T03520169  RH  034%=      5-min Rain = 0
KES1 262114Z 17015G20KT 35/17 A3003 RMK A01 T03520167  RH  033%=      5-min Rain = 0
KES1 262115Z 18014G19KT 35/16 A3003 RMK A01 T03520163  RH  033%=      5-min Rain = 0
KES1 262116Z 18014KT 35/16 A3003 RMK A01 T03520163  RH  033%=      5-min Rain = 0
KES1 262117Z 19012KT 35/17 A3003 RMK A01 T03510166  RH  033%=      5-min Rain = 0
KES1 262118Z 18013KT 35/17 A3003 RMK A01 T03510169  RH  034%=      5-min Rain = 0
KES1 262119Z 17012G17KT 35/17 A3003 RMK A01 T03510172  RH  035%=      5-min Rain = 0
KES1 262120Z 16015KT 35/17 A3003 RMK A01 T03520172  RH  035%=      5-min Rain = 0
KES1 262121Z 16015KT 35/17 A3003 RMK A01 T03520172  RH  034%=      5-min Rain = 0
KES1 262122Z 16009KT 35/17 A3003 RMK A01 T03510172  RH  035%=      5-min Rain = 0
KES1 262123Z 16012KT 35/17 A3003 RMK A01 T03540171  RH  034%=      5-min Rain = 0
KES1 262124Z 17007KT 35/17 A3003 RMK A01 T03540172  RH  034%=      5-min Rain = 0
KES1 262125Z 15011G16KT 36/18 A3003 RMK A01 T03550175  RH  035%=      5-min Rain = 0
KES1 262126Z 17010KT 36/18 A3003 RMK A01 T03550179  RH  035%=      5-min Rain = 0
KES1 262127Z 17013G19KT 36/18 A3003 RMK A01 T03590180  RH  035%=      5-min Rain = 0
KES1 262128Z 16014KT 36/18 A3003 RMK A01 T03600175  RH  034%=      5-min Rain = 0
KES1 262129Z 18010KT 35/18 A3003 RMK A01 T03530175  RH  035%=      5-min Rain = 0
KES1 262130Z 18009KT 35/17 A3003 RMK A01 T03530172  RH  034%=      5-min Rain = 0
KES1 262131Z 17011KT 36/17 A3003 RMK A01 T03560172  RH  034%=      5-min Rain = 0
KES1 262132Z 18013KT 36/17 A3003 RMK A01 T03550171  RH  034%=      5-min Rain = 0
KES1 262133Z 17013KT 35/17 A3003 RMK A01 T03540172  RH  034%=      5-min Rain = 0
KES1 262134Z 18013KT 35/17 A3003 RMK A01 T03530171  RH  034%=      5-min Rain = 0
KES1 262135Z 17015G20KT 35/17 A3003 RMK A01 T03510171  RH  034%=      5-min Rain = 0
KES1 262136Z 18011G16KT 35/17 A3003 RMK A01 T03510172  RH  035%=      5-min Rain = 0
KES1 262137Z 18014G19KT 35/17 A3003 RMK A01 T03540172  RH  034%=      5-min Rain = 0
KES1 262138Z 18014G19KT 35/17 A3003 RMK A01 T03530169  RH  034%=      5-min Rain = 0
KES1 262139Z 18012KT 35/17 A3003 RMK A01 T03530169  RH  034%=      5-min Rain = 0
KES1 262140Z 18009G14KT 35/17 A3003 RMK A01 T03530168  RH  033%=      5-min Rain = 0
KES1 262141Z 18008KT 36/17 A3003 RMK A01 T03550170  RH  034%=      5-min Rain = 0
KES1 262142Z 16008KT 36/17 A3003 RMK A01 T03570170  RH  033%=      5-min Rain = 0
KES1 262143Z 14013G20KT 36/17 A3003 RMK A01 T03580174  RH  034%=      5-min Rain = 0
KES1 262144Z 15011KT 36/18 A3003 RMK A01 T03560178  RH  035%=      5-min Rain = 0
KES1 262145Z 15013KT 36/18 A3003 RMK A01 T03560177  RH  035%=      5-min Rain = 0
KES1 262146Z 15015G21KT 35/18 A3003 RMK A01 T03520175  RH  035%=      5-min Rain = 0
KES1 262147Z 14015KT 35/18 A3003 RMK A01 T03490177  RH  036%=      5-min Rain = 0
KES1 262148Z 14012KT 35/18 A3003 RMK A01 T03480177  RH  036%=      5-min Rain = 0
KES1 262149Z 14012KT 35/18 A3003 RMK A01 T03480178  RH  037%=      5-min Rain = 0
KES1 262150Z 14013KT 35/18 A3003 RMK A01 T03480177  RH  036%=      5-min Rain = 0
KES1 262151Z 14012G17KT 35/18 A3003 RMK A01 T03480178  RH  037%=      5-min Rain = 0
KES1 262152Z 14016KT 35/18 A3003 RMK A01 T03500178  RH  036%=      5-min Rain = 0
KES1 262153Z 15014G19KT 35/18 A3003 RMK A01 T03490179  RH  037%=      5-min Rain = 0
KES1 262154Z 16014G19KT 35/18 A3003 RMK A01 T03490180  RH  037%=      5-min Rain = 0
KES1 262155Z 15015G20KT 35/18 A3003 RMK A01 T03480180  RH  037%=      5-min Rain = 0
KES1 262156Z 16013G18KT 35/18 A3003 RMK A01 T03490180  RH  037%=      5-min Rain = 0
KES1 262157Z 14010KT 35/18 A3003 RMK A01 T03500180  RH  037%=      5-min Rain = 0
KES1 262158Z 15012G17KT 35/18 A3003 RMK A01 T03520182  RH  037%=      5-min Rain = 0
KES1 262159Z 16015KT 35/18 A3003 RMK A01 T03530180  RH  036%=      5-min Rain = 0
KES1 262200Z 15014KT 35/18 A3003 RMK A01 T03510175  RH  035%=      5-min Rain = 0
KES1 262201Z 17012KT 35/17 A3002 RMK A01 T03480174  RH  036%=      5-min Rain = 0
KES1 262202Z 18012G18KT 35/18 A3002 RMK A01 T03490175  RH  036%=      5-min Rain = 0
KES1 262203Z 18014KT 35/17 A3002 RMK A01 T03500174  RH  035%=      5-min Rain = 0
KES1 262204Z 17013KT 35/18 A3003 RMK A01 T03500175  RH  035%=      5-min Rain = 0
KES1 262205Z 17012KT 35/18 A3003 RMK A01 T03500175  RH  036%=      5-min Rain = 0
KES1 262206Z 16010KT 35/17 A3003 RMK A01 T03480174  RH  036%=      5-min Rain = 0
KES1 262207Z 16010KT 35/17 A3002 RMK A01 T03470174  RH  036%=      5-min Rain = 0
KES1 262208Z 16009KT 35/17 A3002 RMK A01 T03480174  RH  036%=      5-min Rain = 0
KES1 262209Z 16008KT 35/18 A3002 RMK A01 T03510176  RH  036%=      5-min Rain = 0
KES1 262210Z 16009G14KT 36/18 A3002 RMK A01 T03550179  RH  035%=      5-min Rain = 0
KES1 262211Z 15013KT 36/18 A3002 RMK A01 T03570182  RH  036%=      5-min Rain = 0
KES1 262212Z 16013KT 36/18 A3002 RMK A01 T03560181  RH  036%=      5-min Rain = 0
KES1 262213Z 14012KT 35/18 A3002 RMK A01 T03510180  RH  037%=      5-min Rain = 0
KES1 262214Z 15014KT 35/18 A3002 RMK A01 T03490181  RH  037%=      5-min Rain = 0
KES1 262215Z 15012KT 35/18 A3002 RMK A01 T03490180  RH  037%=      5-min Rain = 0
KES1 262216Z 14014KT 35/18 A3002 RMK A01 T03480180  RH  037%=      5-min Rain = 0
KES1 262217Z 15014KT 35/18 A3002 RMK A01 T03490181  RH  037%=      5-min Rain = 0
KES1 262218Z 18013KT 35/18 A3002 RMK A01 T03510181  RH  037%=      5-min Rain = 0
KES1 262219Z 17015G25KT 35/18 A3002 RMK A01 T03510179  RH  036%=      5-min Rain = 0
KES1 262220Z 16010KT 35/18 A3002 RMK A01 T03500179  RH  037%=      5-min Rain = 0
KES1 262221Z 15014KT 35/18 A3002 RMK A01 T03490179  RH  037%=      5-min Rain = 0
KES1 262222Z 14014KT 35/18 A3002 RMK A01 T03480176  RH  036%=      5-min Rain = 0
KES1 262223Z 14014KT 35/18 A3002 RMK A01 T03470176  RH  036%=      5-min Rain = 0
KES1 262224Z 16015KT 35/18 A3002 RMK A01 T03470176  RH  036%=      5-min Rain = 0
KES1 262225Z 16012G17KT 35/18 A3002 RMK A01 T03470175  RH  036%=      5-min Rain = 0
KES1 262226Z 15018KT 35/18 A3002 RMK A01 T03470176  RH  036%=      5-min Rain = 0
KES1 262227Z 16013G18KT 35/18 A3002 RMK A01 T03470175  RH  036%=      5-min Rain = 0
KES1 262228Z 15011KT 35/18 A3002 RMK A01 T03470177  RH  036%=      5-min Rain = 0
KES1 262229Z 16015KT 35/18 A3002 RMK A01 T03490178  RH  036%=      5-min Rain = 0
KES1 262230Z 16016KT 35/18 A3002 RMK A01 T03490175  RH  036%=      5-min Rain = 0
KES1 262231Z 16015G21KT 35/17 A3002 RMK A01 T03470173  RH  036%=      5-min Rain = 0
KES1 262232Z 14013KT 35/18 A3001 RMK A01 T03470175  RH  036%=      5-min Rain = 0
KES1 262233Z 15014KT 35/18 A3001 RMK A01 T03470176  RH  036%=      5-min Rain = 0
KES1 262234Z 14017KT 35/18 A3001 RMK A01 T03470175  RH  036%=      5-min Rain = 0
KES1 262235Z 14015G20KT 35/18 A3001 RMK A01 T03470175  RH  036%=      5-min Rain = 0
KES1 262236Z 14012KT 35/18 A3001 RMK A01 T03470175  RH  036%=      5-min Rain = 0
KES1 262237Z 14014KT 35/17 A3001 RMK A01 T03470174  RH  036%=      5-min Rain = 0
KES1 262238Z 14014KT 35/17 A3001 RMK A01 T03480174  RH  036%=      5-min Rain = 0
KES1 262239Z 15015KT 35/18 A3001 RMK A01 T03490176  RH  036%=      5-min Rain = 0
KES1 262240Z 15015KT 35/18 A3001 RMK A01 T03490177  RH  036%=      5-min Rain = 0
KES1 262241Z 14011KT 35/18 A3001 RMK A01 T03470179  RH  037%=      5-min Rain = 0
KES1 262242Z 15013G18KT 35/18 A3001 RMK A01 T03480178  RH  037%=      5-min Rain = 0
KES1 262243Z 17017KT 35/18 A3001 RMK A01 T03470176  RH  036%=      5-min Rain = 0
KES1 262244Z 17013KT 34/17 A3001 RMK A01 T03440174  RH  037%=      5-min Rain = 0
KES1 262245Z 16012KT 35/18 A3001 RMK A01 T03450175  RH  037%=      5-min Rain = 0
KES1 262246Z 18013KT 35/17 A3001 RMK A01 T03450174  RH  036%=      5-min Rain = 0
KES1 262247Z 16013G18KT 34/18 A3001 RMK A01 T03440175  RH  037%=      5-min Rain = 0
KES1 262248Z 17012KT 34/18 A3001 RMK A01 T03440176  RH  037%=      5-min Rain = 0
KES1 262249Z 17013KT 35/17 A3001 RMK A01 T03460173  RH  036%=      5-min Rain = 0
KES1 262250Z 17010KT 35/17 A3001 RMK A01 T03470172  RH  036%=      5-min Rain = 0
KES1 262251Z 18014KT 35/17 A3001 RMK A01 T03460169  RH  035%=      5-min Rain = 0
KES1 262252Z 16014G19KT 35/17 A3001 RMK A01 T03460173  RH  036%=      5-min Rain = 0
KES1 262253Z 15010KT 35/18 A3001 RMK A01 T03450177  RH  037%=      5-min Rain = 0
KES1 262254Z 16012KT 35/18 A3001 RMK A01 T03460178  RH  037%=      5-min Rain = 0
KES1 262255Z 17010G15KT 35/18 A3001 RMK A01 T03470178  RH  037%=      5-min Rain = 0
KES1 262256Z 16013G19KT 35/18 A3001 RMK A01 T03480178  RH  037%=      5-min Rain = 0
KES1 262257Z 16016G21KT 35/18 A3001 RMK A01 T03460177  RH  037%=      5-min Rain = 0
KES1 262258Z 16013G18KT 34/18 A3001 RMK A01 T03430178  RH  038%=      5-min Rain = 0
KES1 262259Z 17015KT 34/18 A3001 RMK A01 T03420179  RH  038%=      5-min Rain = 0
KES1 262300Z 16015KT 34/18 A3001 RMK A01 T03430177  RH  037%=      5-min Rain = 0
KES1 262301Z 17015KT 34/18 A3001 RMK A01 T03410177  RH  038%=      5-min Rain = 0
KES1 262302Z 16015KT 34/18 A3001 RMK A01 T03400177  RH  038%=      5-min Rain = 0
KES1 262303Z 15014KT 34/18 A3001 RMK A01 T03400178  RH  038%=      5-min Rain = 0
KES1 262304Z 15017KT 34/18 A3001 RMK A01 T03400177  RH  038%=      5-min Rain = 0
KES1 262305Z 14017KT 34/18 A3001 RMK A01 T03400178  RH  038%=      5-min Rain = 0
KES1 262306Z 16013KT 34/18 A3001 RMK A01 T03400178  RH  038%=      5-min Rain = 0
KES1 262307Z 16017KT 34/18 A3001 RMK A01 T03400180  RH  039%=      5-min Rain = 0
KES1 262308Z 16017KT 34/18 A3001 RMK A01 T03400181  RH  039%=      5-min Rain = 0
KES1 262309Z 16017KT 34/18 A3001 RMK A01 T03390181  RH  039%=      5-min Rain = 0
KES1 262310Z 16015G21KT 34/18 A3001 RMK A01 T03370180  RH  039%=      5-min Rain = 0
KES1 262311Z 16015KT 34/18 A3001 RMK A01 T03360180  RH  040%=      5-min Rain = 0
KES1 262312Z 16013KT 34/18 A30 RMK A01 T03350180  RH  040%=      5-min Rain = 0
KES1 262313Z 15016G21KT 34/18 A30 RMK A01 T03360180  RH  040%=      5-min Rain = 0
KES1 262314Z 15016KT 34/18 A30 RMK A01 T03360181  RH  040%=      5-min Rain = 0
KES1 262315Z 15016KT 34/18 A30 RMK A01 T03360181  RH  040%=      5-min Rain = 0
KES1 262316Z 16010KT 34/18 A30 RMK A01 T03360181  RH  040%=      5-min Rain = 0
KES1 262317Z 16015G20KT 34/18 A30 RMK A01 T03360182  RH  040%=      5-min Rain = 0
KES1 262318Z 15014KT 34/18 A30 RMK A01 T03350180  RH  040%=      5-min Rain = 0
KES1 262319Z 15011G16KT 34/18 A30 RMK A01 T03350180  RH  040%=      5-min Rain = 0
KES1 262320Z 16011KT 34/18 A30 RMK A01 T03350181  RH  040%=      5-min Rain = 0
KES1 262321Z 17012G17KT 34/18 A3001 RMK A01 T03370183  RH  040%=      5-min Rain = 0
KES1 262322Z 16015G20KT 34/18 A30 RMK A01 T03400181  RH  039%=      5-min Rain = 0
KES1 262323Z 16013KT 34/18 A30 RMK A01 T03380180  RH  039%=      5-min Rain = 0
KES1 262324Z 16012G17KT 34/18 A30 RMK A01 T03380180  RH  039%=      5-min Rain = 0
KES1 262325Z 17013G18KT 34/18 A30 RMK A01 T03370181  RH  040%=      5-min Rain = 0
KES1 262326Z 17013KT 34/18 A30 RMK A01 T03380180  RH  039%=      5-min Rain = 0
KES1 262327Z 17014KT 34/18 A30 RMK A01 T03370179  RH  039%=      5-min Rain = 0
KES1 262328Z 16015KT 34/18 A30 RMK A01 T03370178  RH  039%=      5-min Rain = 0
KES1 262329Z 16012G17KT 34/18 A30 RMK A01 T03370178  RH  039%=      5-min Rain = 0
KES1 262330Z 16015KT 34/18 A30 RMK A01 T03360178  RH  039%=      5-min Rain = 0
KES1 262331Z 15015KT 34/18 A30 RMK A01 T03350178  RH  039%=      5-min Rain = 0
KES1 262332Z 15017KT 34/18 A30 RMK A01 T03350176  RH  039%=      5-min Rain = 0
KES1 262333Z 16015G22KT 34/18 A30 RMK A01 T03350177  RH  039%=      5-min Rain = 0
KES1 262334Z 16016KT 34/18 A30 RMK A01 T03350176  RH  039%=      5-min Rain = 0
KES1 262335Z 15016KT 34/18 A30 RMK A01 T03350178  RH  039%=      5-min Rain = 0
KES1 262336Z 14015KT 33/18 A30 RMK A01 T03340178  RH  040%=      5-min Rain = 0
KES1 262337Z 15014KT 33/18 A30 RMK A01 T03330179  RH  040%=      5-min Rain = 0
KES1 262338Z 16014KT 33/18 A30 RMK A01 T03330179  RH  040%=      5-min Rain = 0
KES1 262339Z 17014KT 33/18 A30 RMK A01 T03330177  RH  040%=      5-min Rain = 0
KES1 262340Z 17013G18KT 33/18 A30 RMK A01 T03330177  RH  039%=      5-min Rain = 0
KES1 262341Z 16014KT 33/18 A30 RMK A01 T03340178  RH  039%=      5-min Rain = 0
KES1 262342Z 16011KT 34/18 A30 RMK A01 T03350177  RH  039%=      5-min Rain = 0
KES1 262343Z 17014G20KT 34/18 A30 RMK A01 T03360177  RH  039%=      5-min Rain = 0
KES1 262344Z 17013KT 34/18 A30 RMK A01 T03360176  RH  039%=      5-min Rain = 0
KES1 262345Z 17011KT 34/18 A30 RMK A01 T03350176  RH  039%=      5-min Rain = 0
KES1 262346Z 16011KT 34/18 A30 RMK A01 T03350176  RH  039%=      5-min Rain = 0
KES1 262347Z 17013G18KT 34/18 A30 RMK A01 T03350178  RH  039%=      5-min Rain = 0
KES1 262348Z 15013KT 33/18 A30 RMK A01 T03340178  RH  040%=      5-min Rain = 0
KES1 262349Z 16011KT 33/18 A30 RMK A01 T03330180  RH  040%=      5-min Rain = 0
KES1 262350Z 16011KT 33/18 A30 RMK A01 T03320180  RH  041%=      5-min Rain = 0
KES1 262351Z 15013G18KT 33/18 A30 RMK A01 T03320180  RH  041%=      5-min Rain = 0
KES1 262352Z 15014KT 33/18 A30 RMK A01 T03300179  RH  041%=      5-min Rain = 0
KES1 262353Z 16013G18KT 33/18 A30 RMK A01 T03290179  RH  041%=      5-min Rain = 0
KES1 262354Z 15013G20KT 33/18 A30 RMK A01 T03280179  RH  041%=      5-min Rain = 0
KES1 262355Z 15015G21KT 33/18 A30 RMK A01 T03260179  RH  042%=      5-min Rain = 0
KES1 262356Z 14012G19KT 33/18 A30 RMK A01 T03250179  RH  042%=      5-min Rain = 0
KES1 262357Z 16016G21KT 32/18 A30 RMK A01 T03240179  RH  042%=      5-min Rain = 0
KES1 262358Z 16015G20KT 32/18 A30 RMK A01 T03230179  RH  042%=      5-min Rain = 0
KES1 262359Z 15013KT 32/18 A3001 RMK A01 T03220179  RH  043%=      5-min Rain = 0
KES1 270000Z 16014KT 32/18 A3001 RMK A01 T03220179  RH  043%=      5-min Rain = 0
KES1 270001Z 16014KT 32/18 A3001 RMK A01 T03210177  RH  042%=      5-min Rain = 0
KES1 270002Z 17011G19KT 32/18 A3001 RMK A01 T03210178  RH  042%=      5-min Rain = 0
KES1 270003Z 17013KT 32/18 A3001 RMK A01 T03220177  RH  042%=      5-min Rain = 0
KES1 270004Z 16012KT 32/18 A3001 RMK A01 T03220177  RH  042%=      5-min Rain = 0
KES1 270005Z 16013KT 32/18 A3001 RMK A01 T03220177  RH  042%=      5-min Rain = 0
KES1 270006Z 16011KT 32/18 A3001 RMK A01 T03230177  RH  042%=      5-min Rain = 0
KES1 270007Z 17010G15KT 32/18 A3001 RMK A01 T03230178  RH  042%=      5-min Rain = 0
KES1 270008Z 17013KT 33/18 A3001 RMK A01 T03250178  RH  042%=      5-min Rain = 0
KES1 270009Z 17012KT 33/18 A3001 RMK A01 T03250177  RH  041%=      5-min Rain = 0
KES1 270010Z 16012KT 33/18 A3001 RMK A01 T03250177  RH  042%=      5-min Rain = 0
KES1 270011Z 16011KT 33/18 A3001 RMK A01 T03250178  RH  042%=      5-min Rain = 0
KES1 270012Z 16015KT 33/18 A3001 RMK A01 T03250177  RH  041%=      5-min Rain = 0
KES1 270013Z 15013KT 32/18 A3001 RMK A01 T03240175  RH  041%=      5-min Rain = 0
KES1 270014Z 16010KT 32/18 A3001 RMK A01 T03240176  RH  041%=      5-min Rain = 0
KES1 270015Z 15015KT 32/18 A3001 RMK A01 T03240176  RH  041%=      5-min Rain = 0
KES1 270016Z 15014KT 32/18 A3001 RMK A01 T03240175  RH  041%=      5-min Rain = 0
KES1 270017Z 16015KT 32/17 A3001 RMK A01 T03240174  RH  041%=      5-min Rain = 0
KES1 270018Z 16011KT 32/17 A3001 RMK A01 T03230174  RH  041%=      5-min Rain = 0
KES1 270019Z 16009KT 32/18 A3001 RMK A01 T03230175  RH  041%=      5-min Rain = 0
KES1 270020Z 16013KT 33/18 A3001 RMK A01 T03250178  RH  042%=      5-min Rain = 0
KES1 270021Z 16015KT 33/18 A3001 RMK A01 T03260178  RH  041%=      5-min Rain = 0
KES1 270022Z 16012KT 33/18 A3001 RMK A01 T03250179  RH  042%=      5-min Rain = 0
KES1 270023Z 15014KT 33/18 A3001 RMK A01 T03260181  RH  042%=      5-min Rain = 0
KES1 270024Z 15015KT 33/18 A3001 RMK A01 T03250181  RH  042%=      5-min Rain = 0
KES1 270025Z 15015KT 33/18 A3001 RMK A01 T03250180  RH  042%=      5-min Rain = 0
KES1 270026Z 15015KT 33/18 A3001 RMK A01 T03250180  RH  042%=      5-min Rain = 0
KES1 270027Z 16015KT 32/18 A3001 RMK A01 T03240181  RH  043%=      5-min Rain = 0
KES1 270028Z 16015G21KT 32/18 A3001 RMK A01 T03240180  RH  042%=      5-min Rain = 0
KES1 270029Z 16015G21KT 32/18 A3001 RMK A01 T03240179  RH  042%=      5-min Rain = 0
KES1 270030Z 16014KT 32/18 A3001 RMK A01 T03240178  RH  042%=      5-min Rain = 0
KES1 270031Z 16014KT 32/18 A3001 RMK A01 T03230177  RH  042%=      5-min Rain = 0
KES1 270032Z 15014G21KT 32/18 A3001 RMK A01 T03230177  RH  042%=      5-min Rain = 0
KES1 270033Z 16015KT 32/18 A3001 RMK A01 T03220176  RH  042%=      5-min Rain = 0
KES1 270034Z 16013KT 32/18 A3001 RMK A01 T03220177  RH  042%=      5-min Rain = 0
KES1 270035Z 15011G16KT 32/18 A3001 RMK A01 T03220177  RH  042%=      5-min Rain = 0
KES1 270036Z 16011KT 32/18 A3001 RMK A01 T03220177  RH  042%=      5-min Rain = 0
KES1 270037Z 15014G19KT 32/18 A3001 RMK A01 T03220177  RH  042%=      5-min Rain = 0
KES1 270038Z 16017KT 32/18 A3001 RMK A01 T03220177  RH  042%=      5-min Rain = 0
KES1 270039Z 16016KT 32/18 A3001 RMK A01 T03210177  RH  042%=      5-min Rain = 0
KES1 270040Z 16013KT 32/18 A3001 RMK A01 T03200177  RH  043%=      5-min Rain = 0
KES1 270041Z 16013KT 32/18 A3001 RMK A01 T03200178  RH  043%=      5-min Rain = 0
KES1 270042Z 16016G21KT 32/18 A3001 RMK A01 T03190178  RH  043%=      5-min Rain = 0
KES1 270043Z 16013KT 32/18 A3001 RMK A01 T03190178  RH  043%=      5-min Rain = 0
KES1 270044Z 16012G18KT 32/18 A3001 RMK A01 T03190178  RH  043%=      5-min Rain = 0
KES1 270045Z 17016KT 32/18 A3001 RMK A01 T03190178  RH  043%=      5-min Rain = 0
KES1 270046Z 16015G21KT 32/18 A3001 RMK A01 T03190177  RH  043%=      5-min Rain = 0
KES1 270047Z 16016KT 32/18 A3001 RMK A01 T03180176  RH  043%=      5-min Rain = 0
KES1 270048Z 16016KT 32/18 A3001 RMK A01 T03170175  RH  043%=      5-min Rain = 0
KES1 270049Z 16012KT 32/18 A3001 RMK A01 T03170176  RH  043%=      5-min Rain = 0
KES1 270050Z 16016KT 32/18 A3001 RMK A01 T03170176  RH  043%=      5-min Rain = 0
KES1 270051Z 16015KT 32/18 A3001 RMK A01 T03170175  RH  043%=      5-min Rain = 0
KES1 270052Z 16013G19KT 32/17 A3001 RMK A01 T03160174  RH  043%=      5-min Rain = 0
KES1 270053Z 16013KT 32/17 A3001 RMK A01 T03160174  RH  043%=      5-min Rain = 0
KES1 270054Z 17009KT 32/17 A3001 RMK A01 T03160174  RH  043%=      5-min Rain = 0
KES1 270055Z 17012G17KT 32/17 A3002 RMK A01 T03160174  RH  043%=      5-min Rain = 0
KES1 270056Z 17013KT 32/17 A3002 RMK A01 T03160173  RH  043%=      5-min Rain = 0
KES1 270057Z 17011KT 32/17 A3002 RMK A01 T03150173  RH  043%=      5-min Rain = 0
KES1 270058Z 17014KT 32/17 A3002 RMK A01 T03150173  RH  043%=      5-min Rain = 0
KES1 270059Z 17010KT 32/17 A3002 RMK A01 T03150173  RH  043%=      5-min Rain = 0
KES1 270100Z 17011G16KT 31/17 A3002 RMK A01 T03140173  RH  043%=      5-min Rain = 0
KES1 270101Z 17011KT 31/17 A3002 RMK A01 T03140173  RH  043%=      5-min Rain = 0
KES1 270102Z 16010G15KT 31/17 A3002 RMK A01 T03140173  RH  043%=      5-min Rain = 0
KES1 270103Z 17011KT 31/17 A3002 RMK A01 T03130173  RH  043%=      5-min Rain = 0
KES1 270104Z 16011KT 31/17 A3002 RMK A01 T03130174  RH  043%=      5-min Rain = 0
KES1 270105Z 17012G17KT 31/17 A3002 RMK A01 T03120173  RH  043%=      5-min Rain = 0
KES1 270106Z 18012KT 31/17 A3002 RMK A01 T03120172  RH  043%=      5-min Rain = 0
KES1 270107Z 17014KT 31/17 A3002 RMK A01 T03120172  RH  043%=      5-min Rain = 0
KES1 270108Z 17011KT 31/17 A3002 RMK A01 T03120173  RH  043%=      5-min Rain = 0
KES1 270109Z 17010KT 31/17 A3003 RMK A01 T03120174  RH  044%=      5-min Rain = 0
KES1 270110Z 17010G15KT 31/18 A3003 RMK A01 T03110175  RH  044%=      5-min Rain = 0
KES1 270111Z 17011KT 31/18 A3003 RMK A01 T03110176  RH  045%=      5-min Rain = 0
KES1 270112Z 17012KT 31/18 A3003 RMK A01 T03100177  RH  045%=      5-min Rain = 0
KES1 270113Z 17011KT 31/18 A3003 RMK A01 T03100177  RH  045%=      5-min Rain = 0
KES1 270114Z 17013KT 31/18 A3003 RMK A01 T03100177  RH  045%=      5-min Rain = 0
KES1 270115Z 16012KT 31/18 A3003 RMK A01 T03090176  RH  045%=      5-min Rain = 0
KES1 270116Z 17009KT 31/18 A3003 RMK A01 T03090176  RH  045%=      5-min Rain = 0
KES1 270117Z 16011KT 31/18 A3003 RMK A01 T03090177  RH  045%=      5-min Rain = 0
KES1 270118Z 17011KT 31/18 A3003 RMK A01 T03080175  RH  045%=      5-min Rain = 0
KES1 270119Z 17012KT 31/18 A3003 RMK A01 T03080175  RH  045%=      5-min Rain = 0
KES1 270120Z 16010KT 31/18 A3004 RMK A01 T03070175  RH  045%=      5-min Rain = 0
KES1 270121Z 16012KT 31/17 A3004 RMK A01 T03070174  RH  045%=      5-min Rain = 0
KES1 270122Z 17010KT 31/18 A3004 RMK A01 T03060175  RH  045%=      5-min Rain = 0
KES1 270123Z 18012G17KT 31/18 A3004 RMK A01 T03060175  RH  045%=      5-min Rain = 0
KES1 270124Z 17008KT 31/18 A3004 RMK A01 T03050175  RH  046%=      5-min Rain = 0
KES1 270125Z 18008KT 31/18 A3004 RMK A01 T03050175  RH  046%=      5-min Rain = 0
KES1 270126Z 18008G13KT 30/18 A3004 RMK A01 T03040175  RH  046%=      5-min Rain = 0
KES1 270127Z 18007KT 30/18 A3004 RMK A01 T03040175  RH  046%=      5-min Rain = 0
KES1 270128Z 17007KT 30/18 A3004 RMK A01 T03030176  RH  046%=      5-min Rain = 0
KES1 270129Z 17008KT 30/18 A3004 RMK A01 T03020176  RH  047%=      5-min Rain = 0
KES1 270130Z 17008KT 30/18 A3004 RMK A01 T03020176  RH  047%=      5-min Rain = 0
KES1 270131Z 17010KT 30/18 A3004 RMK A01 T03010176  RH  047%=      5-min Rain = 0
KES1 270132Z 17011KT 30/18 A3004 RMK A01 T03010175  RH  047%=      5-min Rain = 0
KES1 270133Z 17010KT 30/18 A3004 RMK A01 T03010175  RH  047%=      5-min Rain = 0
KES1 270134Z 18009KT 30/18 A3004 RMK A01 T03010175  RH  047%=      5-min Rain = 0
KES1 270135Z 17009KT 30/18 A3004 RMK A01 T03000175  RH  047%=      5-min Rain = 0
KES1 270136Z 17008KT 30/18 A3005 RMK A01 T03000175  RH  047%=      5-min Rain = 0
KES1 270137Z 17008KT 30/18 A3005 RMK A01 T02990175  RH  047%=      5-min Rain = 0
KES1 270138Z 18010KT 30/18 A3005 RMK A01 T02990175  RH  047%=      5-min Rain = 0
KES1 270139Z 17007KT 30/18 A3005 RMK A01 T02990176  RH  048%=      5-min Rain = 0
KES1 270140Z 17009KT 30/18 A3005 RMK A01 T02980176  RH  048%=      5-min Rain = 0
KES1 270141Z 17008KT 30/18 A3005 RMK A01 T02980176  RH  048%=      5-min Rain = 0
KES1 270142Z 17009KT 30/18 A3005 RMK A01 T02980176  RH  048%=      5-min Rain = 0
KES1 270143Z 17010KT 30/18 A3005 RMK A01 T02970177  RH  048%=      5-min Rain = 0
KES1 270144Z 18009KT 30/18 A3005 RMK A01 T02970177  RH  048%=      5-min Rain = 0
KES1 270145Z 18009KT 30/18 A3005 RMK A01 T02970177  RH  048%=      5-min Rain = 0
KES1 270146Z 18009KT 30/18 A3005 RMK A01 T02970177  RH  048%=      5-min Rain = 0
KES1 270147Z 17008KT 30/18 A3005 RMK A01 T02970177  RH  049%=      5-min Rain = 0
KES1 270148Z 18007KT 30/18 A3005 RMK A01 T02960177  RH  049%=      5-min Rain = 0
KES1 270149Z 18007KT 30/18 A3005 RMK A01 T02960177  RH  049%=      5-min Rain = 0
KES1 270150Z 17007KT 30/18 A3005 RMK A01 T02950177  RH  049%=      5-min Rain = 0
KES1 270151Z 18008KT 29/18 A3006 RMK A01 T02940177  RH  049%=      5-min Rain = 0
KES1 270152Z 18008KT 29/18 A3006 RMK A01 T02940178  RH  050%=      5-min Rain = 0
KES1 270153Z 17007KT 29/18 A3006 RMK A01 T02940177  RH  050%=      5-min Rain = 0
KES1 270154Z 17006KT 29/18 A3006 RMK A01 T02940178  RH  050%=      5-min Rain = 0
KES1 270155Z 17006KT 29/18 A3006 RMK A01 T02930178  RH  050%=      5-min Rain = 0
KES1 270156Z 17006KT 29/18 A3006 RMK A01 T02920178  RH  050%=      5-min Rain = 0
KES1 270157Z 17006KT 29/18 A3006 RMK A01 T02920178  RH  050%=      5-min Rain = 0
KES1 270158Z 17005KT 29/18 A3006 RMK A01 T02910178  RH  050%=      5-min Rain = 0
KES1 270159Z 17005KT 29/18 A3006 RMK A01 T02900178  RH  051%=      5-min Rain = 0
KES1 270200Z 17007KT 29/18 A3006 RMK A01 T02900178  RH  051%=      5-min Rain = 0
KES1 270201Z 16006KT 29/18 A3006 RMK A01 T02890178  RH  051%=      5-min Rain = 0
KES1 270202Z 16006KT 29/18 A3006 RMK A01 T02890178  RH  051%=      5-min Rain = 0
KES1 270203Z 16006KT 29/18 A3006 RMK A01 T02880178  RH  051%=      5-min Rain = 0
KES1 270204Z 16007KT 29/18 A3006 RMK A01 T02870178  RH  052%=      5-min Rain = 0
KES1 270205Z 16006KT 29/18 A3006 RMK A01 T02870178  RH  052%=      5-min Rain = 0
KES1 270206Z 16006KT 29/18 A3006 RMK A01 T02860179  RH  052%=      5-min Rain = 0
KES1 270207Z 16006KT 29/18 A3006 RMK A01 T02850179  RH  053%=      5-min Rain = 0
KES1 270208Z 16006KT 28/18 A3006 RMK A01 T02830179  RH  053%=      5-min Rain = 0
KES1 270209Z 16008KT 28/18 A3006 RMK A01 T02830179  RH  053%=      5-min Rain = 0
KES1 270210Z 16007KT 28/18 A3006 RMK A01 T02820179  RH  054%=      5-min Rain = 0
KES1 270211Z 16008KT 28/18 A3006 RMK A01 T02820179  RH  054%=      5-min Rain = 0
KES1 270212Z 16008KT 28/18 A3006 RMK A01 T02820179  RH  054%=      5-min Rain = 0
KES1 270213Z 16008KT 28/18 A3006 RMK A01 T02820180  RH  054%=      5-min Rain = 0
KES1 270214Z 16008KT 28/18 A3006 RMK A01 T02820180  RH  054%=      5-min Rain = 0
KES1 270215Z 16008KT 28/18 A3006 RMK A01 T02820180  RH  054%=      5-min Rain = 0
KES1 270216Z 16008KT 28/18 A3006 RMK A01 T02820180  RH  054%=      5-min Rain = 0
KES1 270217Z 15008KT 28/18 A3006 RMK A01 T02810180  RH  054%=      5-min Rain = 0
KES1 270218Z 16008KT 28/18 A3006 RMK A01 T02810181  RH  054%=      5-min Rain = 0
KES1 270219Z 16008KT 28/18 A3006 RMK A01 T02810181  RH  054%=      5-min Rain = 0
KES1 270220Z 15008KT 28/18 A3006 RMK A01 T02800181  RH  055%=      5-min Rain = 0
KES1 270221Z 15007KT 28/18 A3006 RMK A01 T02800181  RH  055%=      5-min Rain = 0
KES1 270222Z 15008KT 28/18 A3006 RMK A01 T02790180  RH  055%=      5-min Rain = 0
KES1 270223Z 15009KT 28/18 A3006 RMK A01 T02780181  RH  055%=      5-min Rain = 0
KES1 270224Z 15007KT 28/18 A3006 RMK A01 T02780180  RH  055%=      5-min Rain = 0
KES1 270225Z 15007KT 28/18 A3006 RMK A01 T02780181  RH  056%=      5-min Rain = 0
KES1 270226Z 15007KT 28/18 A3006 RMK A01 T02770180  RH  056%=      5-min Rain = 0
KES1 270227Z 15008KT 28/18 A3006 RMK A01 T02760180  RH  056%=      5-min Rain = 0
KES1 270228Z 15008KT 28/18 A3006 RMK A01 T02760180  RH  056%=      5-min Rain = 0
KES1 270229Z 15008KT 28/18 A3006 RMK A01 T02760181  RH  056%=      5-min Rain = 0
KES1 270230Z 15008KT 28/18 A3006 RMK A01 T02760180  RH  056%=      5-min Rain = 0
KES1 270231Z 16007KT 28/18 A3006 RMK A01 T02760180  RH  056%=      5-min Rain = 0
KES1 270232Z 15007KT 28/18 A3006 RMK A01 T02760180  RH  056%=      5-min Rain = 0
KES1 270233Z 15007KT 28/18 A3006 RMK A01 T02750180  RH  056%=      5-min Rain = 0
KES1 270234Z 15008KT 28/18 A3006 RMK A01 T02750180  RH  056%=      5-min Rain = 0
KES1 270235Z 15008KT 28/18 A3006 RMK A01 T02750180  RH  056%=      5-min Rain = 0
KES1 270236Z 15006KT 28/18 A3006 RMK A01 T02750180  RH  056%=      5-min Rain = 0
KES1 270237Z 15008KT 28/18 A3006 RMK A01 T02750180  RH  056%=      5-min Rain = 0
KES1 270238Z 15007KT 27/18 A3006 RMK A01 T02740180  RH  057%=      5-min Rain = 0
KES1 270239Z 15008KT 27/18 A3006 RMK A01 T02740180  RH  057%=      5-min Rain = 0
KES1 270240Z 15007KT 27/18 A3006 RMK A01 T02730181  RH  057%=      5-min Rain = 0
KES1 270241Z 14006KT 27/18 A3006 RMK A01 T02730180  RH  057%=      5-min Rain = 0
KES1 270242Z 14007KT 27/18 A3006 RMK A01 T02730181  RH  057%=      5-min Rain = 0
KES1 270243Z 14007KT 27/18 A3006 RMK A01 T02730180  RH  057%=      5-min Rain = 0
KES1 270244Z 15007KT 27/18 A3007 RMK A01 T02730180  RH  057%=      5-min Rain = 0
KES1 270245Z 14007KT 27/18 A3007 RMK A01 T02730181  RH  057%=      5-min Rain = 0
KES1 270246Z 14007KT 27/18 A3007 RMK A01 T02730180  RH  057%=      5-min Rain = 0
KES1 270247Z 14007KT 27/18 A3007 RMK A01 T02720180  RH  057%=      5-min Rain = 0
KES1 270248Z 15008KT 27/18 A3007 RMK A01 T02720180  RH  057%=      5-min Rain = 0
KES1 270249Z 14007KT 27/18 A3007 RMK A01 T02720180  RH  057%=      5-min Rain = 0
KES1 270250Z 15007KT 27/18 A3007 RMK A01 T02720180  RH  057%=      5-min Rain = 0
KES1 270251Z 15007KT 27/18 A3007 RMK A01 T02720180  RH  057%=      5-min Rain = 0
KES1 270252Z 14007KT 27/18 A3007 RMK A01 T02720180  RH  057%=      5-min Rain = 0
KES1 270253Z 15007KT 27/18 A3007 RMK A01 T02710180  RH  057%=      5-min Rain = 0
KES1 270254Z 14008KT 27/18 A3007 RMK A01 T02710180  RH  058%=      5-min Rain = 0
KES1 270255Z 15007KT 27/18 A3007 RMK A01 T02710180  RH  058%=      5-min Rain = 0
KES1 270256Z 14007KT 27/18 A3007 RMK A01 T02710180  RH  057%=      5-min Rain = 0
KES1 270257Z 15008KT 27/18 A3007 RMK A01 T02710181  RH  058%=      5-min Rain = 0
KES1 270258Z 14006KT 27/18 A3007 RMK A01 T02710181  RH  058%=      5-min Rain = 0
KES1 270259Z 15007KT 27/18 A3007 RMK A01 T02710180  RH  058%=      5-min Rain = 0
KES1 270300Z 15007KT 27/18 A3007 RMK A01 T02710181  RH  058%=      5-min Rain = 0
KES1 270301Z 15007KT 27/18 A3007 RMK A01 T02710181  RH  058%=      5-min Rain = 0
KES1 270302Z 15007KT 27/18 A3007 RMK A01 T02710181  RH  058%=      5-min Rain = 0
KES1 270303Z 15007KT 27/18 A3007 RMK A01 T02710181  RH  058%=      5-min Rain = 0
KES1 270304Z 15006KT 27/18 A3007 RMK A01 T02710181  RH  058%=      5-min Rain = 0
KES1 270305Z 14006KT 27/18 A3007 RMK A01 T02700181  RH  058%=      5-min Rain = 0
KES1 270306Z 14006KT 27/18 A3008 RMK A01 T02690181  RH  058%=      5-min Rain = 0
KES1 270307Z 15006KT 27/18 A3008 RMK A01 T02690181  RH  059%=      5-min Rain = 0
KES1 270308Z 15006KT 27/18 A3008 RMK A01 T02680181  RH  059%=      5-min Rain = 0
KES1 270309Z 14007KT 27/18 A3008 RMK A01 T02670181  RH  059%=      5-min Rain = 0
KES1 270310Z 14007KT 27/18 A3008 RMK A01 T02670182  RH  059%=      5-min Rain = 0
KES1 270311Z 15006KT 27/18 A3008 RMK A01 T02670182  RH  060%=      5-min Rain = 0
KES1 270312Z 14008KT 27/18 A3008 RMK A01 T02660182  RH  060%=      5-min Rain = 0
KES1 270313Z 14007KT 27/18 A3008 RMK A01 T02660183  RH  060%=      5-min Rain = 0
KES1 270314Z 15007KT 27/18 A3008 RMK A01 T02660183  RH  060%=      5-min Rain = 0
KES1 270315Z 15007KT 27/18 A3008 RMK A01 T02670184  RH  060%=      5-min Rain = 0
KES1 270316Z 15007KT 27/18 A3008 RMK A01 T02670184  RH  060%=      5-min Rain = 0
KES1 270317Z 15006KT 27/19 A3008 RMK A01 T02670185  RH  061%=      5-min Rain = 0
KES1 270318Z 15008KT 27/19 A3008 RMK A01 T02660185  RH  061%=      5-min Rain = 0
KES1 270319Z 15007KT 27/19 A3008 RMK A01 T02660185  RH  061%=      5-min Rain = 0
KES1 270320Z 15008KT 27/19 A3008 RMK A01 T02660185  RH  061%=      5-min Rain = 0
KES1 270321Z 15006KT 27/19 A3009 RMK A01 T02660185  RH  061%=      5-min Rain = 0
KES1 270322Z 15007KT 27/19 A3009 RMK A01 T02660186  RH  061%=      5-min Rain = 0
KES1 270323Z 15007KT 27/19 A3009 RMK A01 T02650186  RH  062%=      5-min Rain = 0
KES1 270324Z 15006KT 27/19 A3009 RMK A01 T02650186  RH  062%=      5-min Rain = 0
KES1 270325Z 15007KT 27/19 A3009 RMK A01 T02650186  RH  062%=      5-min Rain = 0
KES1 270326Z 15007KT 26/19 A3009 RMK A01 T02640186  RH  062%=      5-min Rain = 0
KES1 270327Z 15006KT 26/19 A3009 RMK A01 T02640186  RH  062%=      5-min Rain = 0
KES1 270328Z 15006KT 26/19 A3009 RMK A01 T02640186  RH  062%=      5-min Rain = 0
KES1 270329Z 15006KT 26/19 A3009 RMK A01 T02640186  RH  062%=      5-min Rain = 0
KES1 270330Z 15007KT 26/19 A301 RMK A01 T02630186  RH  062%=      5-min Rain = 0
KES1 270331Z 15006KT 26/19 A301 RMK A01 T02640186  RH  062%=      5-min Rain = 0
KES1 270332Z 15007KT 26/19 A301 RMK A01 T02630186  RH  063%=      5-min Rain = 0
KES1 270333Z 15007KT 26/19 A301 RMK A01 T02620186  RH  063%=      5-min Rain = 0
KES1 270334Z 15006KT 26/19 A301 RMK A01 T02620186  RH  063%=      5-min Rain = 0
KES1 270335Z 15006KT 26/19 A301 RMK A01 T02620186  RH  063%=      5-min Rain = 0
KES1 270336Z 15006KT 26/19 A301 RMK A01 T02620186  RH  063%=      5-min Rain = 0
KES1 270337Z 15006KT 26/19 A301 RMK A01 T02610186  RH  063%=      5-min Rain = 0
KES1 270338Z 14007KT 26/19 A301 RMK A01 T02610186  RH  064%=      5-min Rain = 0
KES1 270339Z 14007KT 26/19 A301 RMK A01 T02610187  RH  064%=      5-min Rain = 0
KES1 270340Z 14006KT 26/19 A301 RMK A01 T02600186  RH  064%=      5-min Rain = 0
KES1 270341Z 14006KT 26/19 A301 RMK A01 T02600187  RH  064%=      5-min Rain = 0
KES1 270342Z 15007KT 26/19 A301 RMK A01 T02590186  RH  064%=      5-min Rain = 0
KES1 270343Z 14008KT 26/19 A301 RMK A01 T02590187  RH  064%=      5-min Rain = 0
KES1 270344Z 14007KT 26/19 A301 RMK A01 T02590187  RH  064%=      5-min Rain = 0
KES1 270345Z 15008KT 26/19 A301 RMK A01 T02590187  RH  064%=      5-min Rain = 0
KES1 270346Z 15007KT 26/19 A301 RMK A01 T02590187  RH  064%=      5-min Rain = 0
KES1 270347Z 14007KT 26/19 A301 RMK A01 T02590187  RH  064%=      5-min Rain = 0
KES1 270348Z 14008KT 26/19 A301 RMK A01 T02590187  RH  064%=      5-min Rain = 0
KES1 270349Z 15007KT 26/19 A301 RMK A01 T02590187  RH  064%=      5-min Rain = 0
KES1 270350Z 15007KT 26/19 A301 RMK A01 T02590187  RH  064%=      5-min Rain = 0
KES1 270351Z 15007KT 26/19 A301 RMK A01 T02590187  RH  064%=      5-min Rain = 0
KES1 270352Z 14007KT 26/19 A301 RMK A01 T02590187  RH  064%=      5-min Rain = 0
KES1 270353Z 15008KT 26/19 A301 RMK A01 T02590187  RH  064%=      5-min Rain = 0
KES1 270354Z 15007KT 26/19 A301 RMK A01 T02590187  RH  064%=      5-min Rain = 0
KES1 270355Z 15009KT 26/19 A301 RMK A01 T02590187  RH  064%=      5-min Rain = 0
KES1 270356Z 15008KT 26/19 A301 RMK A01 T02590187  RH  064%=      5-min Rain = 0
KES1 270357Z 15008KT 26/19 A301 RMK A01 T02600187  RH  064%=      5-min Rain = 0
KES1 270358Z 15007KT 26/19 A3011 RMK A01 T02590187  RH  064%=      5-min Rain = 0
KES1 270359Z 15008KT 26/19 A3011 RMK A01 T02590187  RH  064%=      5-min Rain = 0
KES1 270400Z 15007KT 26/19 A3011 RMK A01 T02590187  RH  064%=      5-min Rain = 0
KES1 270401Z 15008KT 26/19 A3011 RMK A01 T02600187  RH  064%=      5-min Rain = 0
KES1 270402Z 15006KT 26/19 A3011 RMK A01 T02600187  RH  064%=      5-min Rain = 0
KES1 270403Z 16007KT 26/19 A3011 RMK A01 T02600187  RH  064%=      5-min Rain = 0
KES1 270404Z 15007KT 26/19 A3011 RMK A01 T02600188  RH  064%=      5-min Rain = 0
KES1 270405Z 15007KT 26/19 A3011 RMK A01 T02590187  RH  065%=      5-min Rain = 0
KES1 270406Z 16007KT 26/19 A3011 RMK A01 T02590188  RH  065%=      5-min Rain = 0
KES1 270407Z 15008KT 26/19 A3012 RMK A01 T02590188  RH  065%=      5-min Rain = 0
KES1 270408Z 15006KT 26/19 A3012 RMK A01 T02580187  RH  065%=      5-min Rain = 0
KES1 270409Z 15006KT 26/19 A3012 RMK A01 T02580188  RH  065%=      5-min Rain = 0
KES1 270410Z 15005KT 26/19 A3012 RMK A01 T02580187  RH  065%=      5-min Rain = 0
KES1 270411Z 16008KT 26/19 A3012 RMK A01 T02570187  RH  065%=      5-min Rain = 0
KES1 270412Z 15007KT 26/19 A3012 RMK A01 T02570187  RH  066%=      5-min Rain = 0
KES1 270413Z 15006KT 26/19 A3012 RMK A01 T02560188  RH  066%=      5-min Rain = 0
KES1 270414Z 15007KT 26/19 A3012 RMK A01 T02560188  RH  066%=      5-min Rain = 0
KES1 270415Z 15007KT 26/19 A3012 RMK A01 T02560187  RH  066%=      5-min Rain = 0
KES1 270416Z 16007KT 26/19 A3012 RMK A01 T02560188  RH  066%=      5-min Rain = 0
KES1 270417Z 15006KT 26/19 A3012 RMK A01 T02560188  RH  066%=      5-min Rain = 0
KES1 270418Z 15006KT 26/19 A3012 RMK A01 T02550188  RH  066%=      5-min Rain = 0
KES1 270419Z 15007KT 26/19 A3012 RMK A01 T02550188  RH  066%=      5-min Rain = 0
KES1 270420Z 16006KT 26/19 A3012 RMK A01 T02550188  RH  066%=      5-min Rain = 0
KES1 270421Z 16007KT 25/19 A3012 RMK A01 T02540188  RH  067%=      5-min Rain = 0
KES1 270422Z 15007KT 25/19 A3012 RMK A01 T02540188  RH  067%=      5-min Rain = 0
KES1 270423Z 15006KT 25/19 A3012 RMK A01 T02540188  RH  067%=      5-min Rain = 0
KES1 270424Z 16007KT 25/19 A3012 RMK A01 T02540188  RH  067%=      5-min Rain = 0
KES1 270425Z 16007KT 25/19 A3012 RMK A01 T02540188  RH  067%=      5-min Rain = 0
KES1 270426Z 16006KT 25/19 A3012 RMK A01 T02540188  RH  067%=      5-min Rain = 0
KES1 270427Z 15006KT 25/19 A3012 RMK A01 T02540188  RH  067%=      5-min Rain = 0
KES1 270428Z 15006KT 25/19 A3012 RMK A01 T02530188  RH  067%=      5-min Rain = 0
KES1 270429Z 15007KT 25/19 A3012 RMK A01 T02530188  RH  067%=      5-min Rain = 0
KES1 270430Z 15007KT 25/19 A3012 RMK A01 T02530188  RH  067%=      5-min Rain = 0
KES1 270431Z 15007KT 25/19 A3012 RMK A01 T02530188  RH  067%=      5-min Rain = 0
KES1 270432Z 15008KT 25/19 A3012 RMK A01 T02530188  RH  068%=      5-min Rain = 0
KES1 270433Z 15008KT 25/19 A3012 RMK A01 T02520189  RH  068%=      5-min Rain = 0
KES1 270434Z 15008KT 25/19 A3012 RMK A01 T02520189  RH  068%=      5-min Rain = 0
KES1 270435Z 15008KT 25/19 A3012 RMK A01 T02520189  RH  068%=      5-min Rain = 0
KES1 270436Z 15007KT 25/19 A3012 RMK A01 T02520189  RH  068%=      5-min Rain = 0
KES1 270437Z 15009KT 25/19 A3012 RMK A01 T02520189  RH  068%=      5-min Rain = 0
KES1 270438Z 15007KT 25/19 A3012 RMK A01 T02520189  RH  068%=      5-min Rain = 0
KES1 270439Z 14007KT 25/19 A3012 RMK A01 T02530189  RH  068%=      5-min Rain = 0
KES1 270440Z 15007KT 25/19 A3012 RMK A01 T02530189  RH  068%=      5-min Rain = 0
KES1 270441Z 14007KT 25/19 A3012 RMK A01 T02520189  RH  068%=      5-min Rain = 0
KES1 270442Z 15008KT 25/19 A3012 RMK A01 T02520189  RH  068%=      5-min Rain = 0
KES1 270443Z 15008KT 25/19 A3012 RMK A01 T02520189  RH  068%=      5-min Rain = 0
KES1 270444Z 15008KT 25/19 A3012 RMK A01 T02520189  RH  068%=      5-min Rain = 0
KES1 270445Z 15007KT 25/19 A3012 RMK A01 T02520189  RH  068%=      5-min Rain = 0
KES1 270446Z 15007KT 25/19 A3012 RMK A01 T02530190  RH  068%=      5-min Rain = 0
KES1 270447Z 15007KT 25/19 A3012 RMK A01 T02520189  RH  068%=      5-min Rain = 0
KES1 270448Z 15007KT 25/19 A3012 RMK A01 T02520190  RH  068%=      5-min Rain = 0
KES1 270449Z 15009KT 25/19 A3012 RMK A01 T02520190  RH  068%=      5-min Rain = 0
KES1 270450Z 15009KT 25/19 A3012 RMK A01 T02520190  RH  068%=      5-min Rain = 0
KES1 270451Z 15008KT 25/19 A3012 RMK A01 T02530190  RH  068%=      5-min Rain = 0
KES1 270452Z 15008KT 25/19 A3012 RMK A01 T02530190  RH  068%=      5-min Rain = 0
KES1 270453Z 15010KT 25/19 A3011 RMK A01 T02530190  RH  068%=      5-min Rain = 0
KES1 270454Z 15009KT 25/19 A3011 RMK A01 T02530190  RH  068%=      5-min Rain = 0
KES1 270455Z 15008KT 25/19 A3011 RMK A01 T02540191  RH  068%=      5-min Rain = 0
KES1 270456Z 15008KT 25/19 A3011 RMK A01 T02540190  RH  068%=      5-min Rain = 0
KES1 270457Z 15009KT 25/19 A3011 RMK A01 T02540191  RH  068%=      5-min Rain = 0
KES1 270458Z 15008KT 25/19 A3011 RMK A01 T02530190  RH  068%=      5-min Rain = 0
KES1 270459Z 15009KT 25/19 A3011 RMK A01 T02530191  RH  068%=      5-min Rain = 0

Page generated in 0.0837 seconds.